Wetterdaten: Sonntag, 01.02.2015
Datum Zeit Temp. Aussen +5cm Feuchte Auss Luftdruck Regen Sonnenschein Regendauer Solar Windben
01.02.2015 00:00 -1,3 C -2,2 C 93 % 985,8 hPa 0,0 l/m 0 min 0 min 0 W/m 8,4 km/h (2 Bft)
01.02.2015 00:02 -1,3 C -2,2 C 93 % 985,9 hPa 0,0 l/m 0 min 0 min 0 W/m 6,3 km/h (2 Bft)
01.02.2015 00:05 -1,2 C -2,2 C 93 % 985,8 hPa 0,0 l/m 0 min 0 min 0 W/m 6,3 km/h (2 Bft)
01.02.2015 00:06 -1,2 C -2,2 C 93 % 985,8 hPa 0,0 l/m 0 min 0 min 0 W/m 6,3 km/h (2 Bft)
01.02.2015 00:08 -1,2 C -2,2 C 93 % 985,7 hPa 0,0 l/m 0 min 0 min 0 W/m 6,3 km/h (2 Bft)
01.02.2015 00:10 -1,2 C -2,8 C 93 % 985,8 hPa 0,0 l/m 0 min 0 min 0 W/m 6,3 km/h (2 Bft)
01.02.2015 00:12 -1,2 C -2,8 C 93 % 985,8 hPa 0,0 l/m 0 min 0 min 0 W/m 6,3 km/h (2 Bft)
01.02.2015 00:14 -1,2 C -2,8 C 94 % 985,8 hPa 0,0 l/m 0 min 0 min 0 W/m 4,2 km/h (1 Bft)
01.02.2015 00:16 -1,2 C -2,8 C 94 % 985,8 hPa 0,0 l/m 0 min 0 min 0 W/m 4,2 km/h (1 Bft)
01.02.2015 00:18 -1,2 C -2,8 C 94 % 985,8 hPa 0,0 l/m 0 min 0 min 0 W/m 6,3 km/h (2 Bft)
01.02.2015 00:20 -1,2 C -2,8 C 94 % 985,9 hPa 0,0 l/m 0 min 0 min 0 W/m 6,3 km/h (2 Bft)
01.02.2015 00:22 -1,2 C -2,8 C 94 % 985,9 hPa 0,0 l/m 0 min 0 min 0 W/m 6,3 km/h (2 Bft)
01.02.2015 00:24 -1,1 C -2,2 C 94 % 985,9 hPa 0,0 l/m 0 min 0 min 0 W/m 6,3 km/h (2 Bft)
01.02.2015 00:26 -1,1 C -2,2 C 94 % 985,9 hPa 0,0 l/m 0 min 0 min 0 W/m 6,3 km/h (2 Bft)
01.02.2015 00:28 -1,1 C -2,2 C 94 % 986,0 hPa 0,0 l/m 0 min 0 min 0 W/m 6,3 km/h (2 Bft)
01.02.2015 00:30 -1,1 C -2,2 C 94 % 986,0 hPa 0,0 l/m 0 min 0 min 0 W/m 8,4 km/h (2 Bft)
01.02.2015 00:32 -1,1 C -2,2 C 94 % 985,9 hPa 0,0 l/m 0 min 0 min 0 W/m 6,3 km/h (2 Bft)
01.02.2015 00:34 -1,1 C -2,2 C 94 % 986,0 hPa 0,0 l/m 0 min 0 min 0 W/m 6,3 km/h (2 Bft)
01.02.2015 00:36 -1,1 C -2,2 C 94 % 986,0 hPa 0,0 l/m 0 min 0 min 0 W/m 4,2 km/h (1 Bft)
01.02.2015 00:38 -1,1 C -1,7 C 94 % 986,1 hPa 0,0 l/m 0 min 0 min 0 W/m 6,3 km/h (2 Bft)
01.02.2015 00:40 -1,1 C -1,7 C 94 % 986,0 hPa 0,0 l/m 0 min 0 min 0 W/m 4,2 km/h (1 Bft)
01.02.2015 00:42 -1,1 C -1,7 C 94 % 986,0 hPa 0,0 l/m 0 min 0 min 0 W/m 4,2 km/h (1 Bft)
01.02.2015 00:44 -1,1 C -1,7 C 94 % 986,0 hPa 0,0 l/m 0 min 0 min 0 W/m 6,3 km/h (2 Bft)
01.02.2015 00:46 -1,1 C -1,7 C 94 % 986,1 hPa 0,0 l/m 0 min 0 min 0 W/m 4,2 km/h (1 Bft)
01.02.2015 00:48 -1,0 C -1,7 C 94 % 986,0 hPa 0,0 l/m 0 min 0 min 0 W/m 4,2 km/h (1 Bft)
01.02.2015 00:50 -1,0 C -1,7 C 94 % 986,1 hPa 0,0 l/m 0 min 0 min 0 W/m 4,2 km/h (1 Bft)
01.02.2015 00:52 -1,0 C -1,7 C 94 % 986,0 hPa 0,0 l/m 0 min 0 min 0 W/m 6,3 km/h (2 Bft)
01.02.2015 00:54 -0,9 C -1,7 C 94 % 986,0 hPa 0,0 l/m 0 min 0 min 0 W/m 6,3 km/h (2 Bft)
01.02.2015 00:56 -0,9 C -1,7 C 94 % 986,0 hPa 0,0 l/m 0 min 0 min 0 W/m 4,2 km/h (1 Bft)
01.02.2015 00:58 -0,9 C -1,7 C 94 % 986,1 hPa 0,0 l/m 0 min 0 min 0 W/m 6,3 km/h (2 Bft)
01.02.2015 01:00 -0,8 C -1,7 C 94 % 986,1 hPa 0,0 l/m 0 min 0 min 0 W/m 6,3 km/h (2 Bft)
01.02.2015 01:02 -0,8 C -1,7 C 95 % 986,0 hPa 0,0 l/m 0 min 0 min 0 W/m 6,3 km/h (2 Bft)
01.02.2015 01:04 -0,8 C -1,7 C 95 % 986,0 hPa 0,0 l/m 0 min 0 min 0 W/m 6,3 km/h (2 Bft)
01.02.2015 01:06 -0,8 C -1,7 C 95 % 986,0 hPa 0,0 l/m 0 min 0 min 0 W/m 4,2 km/h (1 Bft)
01.02.2015 01:08 -0,8 C -1,7 C 95 % 985,9 hPa 0,0 l/m 0 min 0 min 0 W/m 6,3 km/h (2 Bft)
01.02.2015 01:10 -0,7 C -1,7 C 95 % 985,9 hPa 0,0 l/m 0 min 0 min 0 W/m 6,3 km/h (2 Bft)
01.02.2015 01:12 -0,7 C -1,7 C 95 % 986,0 hPa 0,0 l/m 0 min 0 min 0 W/m 6,3 km/h (2 Bft)
01.02.2015 01:14 -0,7 C -1,7 C 95 % 985,9 hPa 0,0 l/m 0 min 0 min 0 W/m 8,4 km/h (2 Bft)
01.02.2015 01:16 -0,7 C -1,7 C 95 % 985,9 hPa 0,0 l/m 0 min 0 min 0 W/m 6,3 km/h (2 Bft)
01.02.2015 01:18 -0,7 C -1,7 C 95 % 985,9 hPa 0,0 l/m 0 min 0 min 0 W/m 6,3 km/h (2 Bft)
01.02.2015 01:20 -0,7 C -1,7 C 95 % 985,9 hPa 0,0 l/m 0 min 0 min 0 W/m 6,3 km/h (2 Bft)
01.02.2015 01:22 -0,7 C -1,7 C 95 % 985,9 hPa 0,0 l/m 0 min 0 min 0 W/m 4,2 km/h (1 Bft)
01.02.2015 01:24 -0,7 C -2,2 C 95 % 985,9 hPa 0,0 l/m 0 min 0 min 0 W/m 4,2 km/h (1 Bft)
01.02.2015 01:26 -0,6 C -2,2 C 95 % 986,0 hPa 0,0 l/m 0 min 0 min 0 W/m 8,4 km/h (2 Bft)
01.02.2015 01:28 -0,6 C -2,2 C 95 % 986,0 hPa 0,0 l/m 0 min 0 min 0 W/m 6,3 km/h (2 Bft)
01.02.2015 01:30 -0,6 C -2,2 C 95 % 986,0 hPa 0,0 l/m 0 min 0 min 0 W/m 6,3 km/h (2 Bft)
01.02.2015 01:32 -0,6 C -2,2 C 95 % 986,0 hPa 0,0 l/m 0 min 0 min 0 W/m 6,3 km/h (2 Bft)
01.02.2015 01:34 -0,6 C -2,2 C 95 % 986,0 hPa 0,0 l/m 0 min 0 min 0 W/m 8,4 km/h (2 Bft)
01.02.2015 01:36 -0,6 C -1,7 C 95 % 986,0 hPa 0,0 l/m 0 min 0 min 0 W/m 8,4 km/h (2 Bft)
01.02.2015 01:38 -0,6 C -1,7 C 95 % 986,0 hPa 0,0 l/m 0 min 0 min 0 W/m 8,4 km/h (2 Bft)
01.02.2015 01:40 -0,6 C -1,7 C 95 % 986,0 hPa 0,0 l/m 0 min 0 min 0 W/m 8,4 km/h (2 Bft)
01.02.2015 01:42 -0,6 C -1,7 C 95 % 986,0 hPa 0,0 l/m 0 min 0 min 0 W/m 8,4 km/h (2 Bft)
01.02.2015 01:44 -0,6 C -1,7 C 95 % 986,0 hPa 0,0 l/m 0 min 0 min 0 W/m 6,3 km/h (2 Bft)
01.02.2015 01:46 -0,6 C -1,7 C 95 % 986,0 hPa 0,0 l/m 0 min 0 min 0 W/m 12,6 km/h (3 Bft)
01.02.2015 01:48 -0,6 C -1,7 C 95 % 986,0 hPa 0,0 l/m 0 min 0 min 0 W/m 6,3 km/h (2 Bft)
01.02.2015 01:50 -0,6 C -1,7 C 95 % 986,0 hPa 0,0 l/m 0 min 0 min 0 W/m 10,5 km/h (2 Bft)
01.02.2015 01:52 -0,6 C -1,7 C 95 % 986,0 hPa 0,0 l/m 0 min 0 min 0 W/m 8,4 km/h (2 Bft)
01.02.2015 01:54 -0,6 C -2,2 C 95 % 986,0 hPa 0,0 l/m 0 min 0 min 0 W/m 8,4 km/h (2 Bft)
01.02.2015 01:56 -0,6 C -2,2 C 95 % 986,0 hPa 0,0 l/m 0 min 0 min 0 W/m 4,2 km/h (1 Bft)
01.02.2015 01:58 -0,6 C -2,2 C 95 % 986,0 hPa 0,0 l/m 0 min 0 min 0 W/m 6,3 km/h (2 Bft)
01.02.2015 02:00 -0,6 C -2,2 C 95 % 986,0 hPa 0,0 l/m 0 min 0 min 0 W/m 6,3 km/h (2 Bft)
01.02.2015 02:02 -0,6 C -2,2 C 95 % 986,0 hPa 0,0 l/m 0 min 0 min 0 W/m 4,2 km/h (1 Bft)
01.02.2015 02:04 -0,6 C -2,2 C 95 % 985,9 hPa 0,0 l/m 0 min 0 min 0 W/m 6,3 km/h (2 Bft)
01.02.2015 02:06 -0,6 C -2,2 C 95 % 985,8 hPa 0,0 l/m 0 min 0 min 0 W/m 6,3 km/h (2 Bft)
01.02.2015 02:08 -0,6 C -2,2 C 95 % 986,0 hPa 0,0 l/m 0 min 0 min 0 W/m 8,4 km/h (2 Bft)
01.02.2015 02:10 -0,6 C -2,2 C 95 % 985,9 hPa 0,0 l/m 0 min 0 min 0 W/m 6,3 km/h (2 Bft)
01.02.2015 02:12 -0,6 C -2,2 C 95 % 986,0 hPa 0,0 l/m 0 min 0 min 0 W/m 8,4 km/h (2 Bft)
01.02.2015 02:14 -0,6 C -2,2 C 95 % 986,0 hPa 0,0 l/m 0 min 0 min 0 W/m 6,3 km/h (2 Bft)
01.02.2015 02:16 -0,6 C -2,2 C 95 % 986,1 hPa 0,0 l/m 0 min 0 min 0 W/m 8,4 km/h (2 Bft)
01.02.2015 02:18 -0,6 C -2,2 C 95 % 986,0 hPa 0,0 l/m 0 min 0 min 0 W/m 6,3 km/h (2 Bft)
01.02.2015 02:20 -0,6 C -2,2 C 95 % 986,0 hPa 0,0 l/m 0 min 0 min 0 W/m 6,3 km/h (2 Bft)
01.02.2015 02:22 -0,6 C -2,2 C 95 % 986,0 hPa 0,0 l/m 0 min 0 min 0 W/m 6,3 km/h (2 Bft)
01.02.2015 02:24 -0,6 C -2,2 C 95 % 986,1 hPa 0,0 l/m 0 min 0 min 0 W/m 6,3 km/h (2 Bft)
01.02.2015 02:26 -0,7 C -2,2 C 95 % 986,0 hPa 0,0 l/m 0 min 0 min 0 W/m 6,3 km/h (2 Bft)
01.02.2015 02:28 -0,7 C -2,2 C 95 % 986,1 hPa 0,0 l/m 0 min 0 min 0 W/m 6,3 km/h (2 Bft)
01.02.2015 02:30 -0,7 C -2,2 C 95 % 986,1 hPa 0,0 l/m 0 min 0 min 0 W/m 6,3 km/h (2 Bft)
01.02.2015 02:32 -0,6 C -2,2 C 95 % 986,1 hPa 0,0 l/m 0 min 0 min 0 W/m 4,2 km/h (1 Bft)
01.02.2015 02:34 -0,7 C -2,2 C 95 % 986,1 hPa 0,0 l/m 0 min 0 min 0 W/m 6,3 km/h (2 Bft)
01.02.2015 02:36 -0,7 C -2,2 C 95 % 986,1 hPa 0,0 l/m 0 min 0 min 0 W/m 10,5 km/h (2 Bft)
01.02.2015 02:38 -0,7 C -2,2 C 95 % 986,1 hPa 0,0 l/m 0 min 0 min 0 W/m 6,3 km/h (2 Bft)
01.02.2015 02:40 -0,7 C -2,2 C 95 % 986,2 hPa 0,0 l/m 0 min 0 min 0 W/m 8,4 km/h (2 Bft)
01.02.2015 02:42 -0,7 C -2,2 C 95 % 986,2 hPa 0,0 l/m 0 min 0 min 0 W/m 8,4 km/h (2 Bft)
01.02.2015 02:44 -0,7 C -1,7 C 95 % 986,2 hPa 0,0 l/m 0 min 0 min 0 W/m 8,4 km/h (2 Bft)
01.02.2015 02:46 -0,7 C -1,7 C 95 % 986,2 hPa 0,0 l/m 0 min 0 min 0 W/m 8,4 km/h (2 Bft)
01.02.2015 02:48 -0,7 C -1,7 C 95 % 986,1 hPa 0,0 l/m 0 min 0 min 0 W/m 8,4 km/h (2 Bft)
01.02.2015 02:50 -0,6 C -1,7 C 95 % 986,1 hPa 0,0 l/m 0 min 0 min 0 W/m 8,4 km/h (2 Bft)
01.02.2015 02:52 -0,6 C -1,7 C 95 % 986,1 hPa 0,0 l/m 0 min 0 min 0 W/m 6,3 km/h (2 Bft)
01.02.2015 02:54 -0,6 C -2,2 C 95 % 986,1 hPa 0,0 l/m 0 min 0 min 0 W/m 6,3 km/h (2 Bft)
01.02.2015 02:56 -0,6 C -1,7 C 96 % 986,1 hPa 0,0 l/m 0 min 0 min 0 W/m 8,4 km/h (2 Bft)
01.02.2015 02:58 -0,6 C -1,7 C 96 % 986,1 hPa 0,0 l/m 0 min 0 min 0 W/m 8,4 km/h (2 Bft)
01.02.2015 03:00 -0,6 C -1,7 C 96 % 986,1 hPa 0,0 l/m 0 min 0 min 0 W/m 8,4 km/h (2 Bft)
01.02.2015 03:02 -0,6 C -1,7 C 96 % 986,1 hPa 0,0 l/m 0 min 0 min 0 W/m 6,3 km/h (2 Bft)
01.02.2015 03:04 -0,6 C -1,7 C 96 % 986,1 hPa 0,0 l/m 0 min 0 min 0 W/m 6,3 km/h (2 Bft)
01.02.2015 03:06 -0,6 C -1,7 C 96 % 986,1 hPa 0,0 l/m 0 min 0 min 0 W/m 6,3 km/h (2 Bft)
01.02.2015 03:08 -0,6 C -1,7 C 96 % 986,1 hPa 0,0 l/m 0 min 0 min 0 W/m 6,3 km/h (2 Bft)
01.02.2015 03:10 -0,6 C -1,7 C 96 % 986,1 hPa 0,0 l/m 0 min 0 min 0 W/m 6,3 km/h (2 Bft)
01.02.2015 03:12 -0,6 C -1,7 C 95 % 986,1 hPa 0,0 l/m 0 min 0 min 0 W/m 6,3 km/h (2 Bft)
01.02.2015 03:14 -0,6 C -1,7 C 96 % 986,1 hPa 0,0 l/m 0 min 0 min 0 W/m 6,3 km/h (2 Bft)
01.02.2015 03:16 -0,6 C -1,7 C 96 % 986,1 hPa 0,0 l/m 0 min 0 min 0 W/m 8,4 km/h (2 Bft)
01.02.2015 03:18 -0,6 C -1,7 C 96 % 986,1 hPa 0,0 l/m 0 min 0 min 0 W/m 8,4 km/h (2 Bft)
01.02.2015 03:20 -0,5 C -1,7 C 96 % 986,1 hPa 0,0 l/m 0 min 0 min 0 W/m 6,3 km/h (2 Bft)
01.02.2015 03:22 -0,5 C -1,7 C 96 % 986,1 hPa 0,0 l/m 0 min 0 min 0 W/m 6,3 km/h (2 Bft)
01.02.2015 03:24 -0,5 C -1,7 C 96 % 986,1 hPa 0,0 l/m 0 min 0 min 0 W/m 8,4 km/h (2 Bft)
01.02.2015 03:26 -0,5 C -1,7 C 96 % 986,1 hPa 0,0 l/m 0 min 0 min 0 W/m 8,4 km/h (2 Bft)
01.02.2015 03:28 -0,5 C -1,7 C 96 % 986,2 hPa 0,0 l/m 0 min 0 min 0 W/m 6,3 km/h (2 Bft)
01.02.2015 03:30 -0,5 C -1,7 C 96 % 986,1 hPa 0,0 l/m 0 min 0 min 0 W/m 6,3 km/h (2 Bft)
01.02.2015 03:32 -0,5 C -1,7 C 96 % 986,1 hPa 0,0 l/m 0 min 0 min 0 W/m 4,2 km/h (1 Bft)
01.02.2015 03:34 -0,4 C -1,7 C 96 % 986,1 hPa 0,0 l/m 0 min 0 min 0 W/m 6,3 km/h (2 Bft)
01.02.2015 03:36 -0,4 C -1,7 C 96 % 986,1 hPa 0,0 l/m 0 min 0 min 0 W/m 8,4 km/h (2 Bft)
01.02.2015 03:38 -0,4 C -1,7 C 96 % 986,1 hPa 0,0 l/m 0 min 0 min 0 W/m 6,3 km/h (2 Bft)
01.02.2015 03:40 -0,4 C -1,7 C 96 % 986,1 hPa 0,0 l/m 0 min 0 min 0 W/m 6,3 km/h (2 Bft)
01.02.2015 03:42 -0,4 C -1,7 C 96 % 986,1 hPa 0,0 l/m 0 min 0 min 0 W/m 4,2 km/h (1 Bft)
01.02.2015 03:44 -0,4 C -2,2 C 96 % 986,1 hPa 0,0 l/m 0 min 0 min 0 W/m 8,4 km/h (2 Bft)
01.02.2015 03:46 -0,5 C -2,2 C 96 % 986,1 hPa 0,0 l/m 0 min 0 min 0 W/m 8,4 km/h (2 Bft)
01.02.2015 03:48 -0,5 C -2,2 C 96 % 986,1 hPa 0,0 l/m 0 min 0 min 0 W/m 6,3 km/h (2 Bft)
01.02.2015 03:50 -0,5 C -2,2 C 96 % 986,0 hPa 0,0 l/m 0 min 0 min 0 W/m 6,3 km/h (2 Bft)
01.02.2015 03:52 -0,5 C -2,2 C 96 % 986,0 hPa 0,0 l/m 0 min 0 min 0 W/m 10,5 km/h (2 Bft)
01.02.2015 03:54 -0,5 C -2,2 C 96 % 986,1 hPa 0,0 l/m 0 min 0 min 0 W/m 8,4 km/h (2 Bft)
01.02.2015 03:56 -0,6 C -1,7 C 96 % 986,1 hPa 0,0 l/m 0 min 0 min 0 W/m 8,4 km/h (2 Bft)
01.02.2015 03:58 -0,6 C -1,7 C 96 % 986,1 hPa 0,0 l/m 0 min 0 min 0 W/m 8,4 km/h (2 Bft)
01.02.2015 04:00 -0,6 C -2,2 C 96 % 986,1 hPa 0,0 l/m 0 min 0 min 0 W/m 6,3 km/h (2 Bft)
01.02.2015 04:05 -0,6 C -2,2 C 96 % 986,1 hPa 0,0 l/m 0 min 0 min 0 W/m 8,4 km/h (2 Bft)
01.02.2015 04:06 -0,6 C -2,2 C 96 % 986,1 hPa 0,0 l/m 0 min 0 min 0 W/m 6,3 km/h (2 Bft)
01.02.2015 04:08 -0,6 C -2,2 C 96 % 986,0 hPa 0,0 l/m 0 min 0 min 0 W/m 8,4 km/h (2 Bft)
01.02.2015 04:10 -0,6 C -2,2 C 96 % 986,0 hPa 0,0 l/m 0 min 0 min 0 W/m 6,3 km/h (2 Bft)
01.02.2015 04:12 -0,7 C -2,2 C 96 % 986,0 hPa 0,0 l/m 0 min 0 min 0 W/m 8,4 km/h (2 Bft)
01.02.2015 04:14 -0,7 C -2,2 C 96 % 986,1 hPa 0,0 l/m 0 min 0 min 0 W/m 8,4 km/h (2 Bft)
01.02.2015 04:16 -0,7 C -2,2 C 96 % 986,1 hPa 0,0 l/m 0 min 0 min 0 W/m 8,4 km/h (2 Bft)
01.02.2015 04:18 -0,7 C -2,2 C 96 % 986,1 hPa 0,0 l/m 0 min 0 min 0 W/m 8,4 km/h (2 Bft)
01.02.2015 04:20 -0,7 C -1,7 C 96 % 986,1 hPa 0,0 l/m 0 min 0 min 0 W/m 10,5 km/h (2 Bft)
01.02.2015 04:22 -0,7 C -1,7 C 96 % 986,2 hPa 0,0 l/m 0 min 0 min 0 W/m 8,4 km/h (2 Bft)
01.02.2015 04:24 -0,7 C -1,7 C 96 % 986,2 hPa 0,0 l/m 0 min 0 min 0 W/m 8,4 km/h (2 Bft)
01.02.2015 04:26 -0,7 C -1,7 C 96 % 986,2 hPa 0,0 l/m 0 min 0 min 0 W/m 8,4 km/h (2 Bft)
01.02.2015 04:28 -0,7 C -1,7 C 96 % 986,2 hPa 0,0 l/m 0 min 0 min 0 W/m 10,5 km/h (2 Bft)
01.02.2015 04:30 -0,7 C -1,7 C 96 % 986,3 hPa 0,0 l/m 0 min 0 min 0 W/m 8,4 km/h (2 Bft)
01.02.2015 04:32 -0,7 C -1,7 C 96 % 986,3 hPa 0,0 l/m 0 min 0 min 0 W/m 8,4 km/h (2 Bft)
01.02.2015 04:34 -0,7 C -1,7 C 96 % 986,4 hPa 0,0 l/m 0 min 0 min 0 W/m 8,4 km/h (2 Bft)
01.02.2015 04:36 -0,7 C -1,7 C 96 % 986,4 hPa 0,0 l/m 0 min 0 min 0 W/m 8,4 km/h (2 Bft)
01.02.2015 04:38 -0,7 C -1,7 C 96 % 986,4 hPa 0,0 l/m 0 min 0 min 0 W/m 8,4 km/h (2 Bft)
01.02.2015 04:40 -0,7 C -1,1 C 96 % 986,4 hPa 0,0 l/m 0 min 0 min 0 W/m 10,5 km/h (2 Bft)
01.02.2015 04:42 -0,7 C -1,1 C 96 % 986,5 hPa 0,0 l/m 0 min 0 min 0 W/m 10,5 km/h (2 Bft)
01.02.2015 04:44 -0,7 C -1,1 C 96 % 986,4 hPa 0,0 l/m 0 min 0 min 0 W/m 8,4 km/h (2 Bft)
01.02.2015 04:46 -0,7 C -1,1 C 96 % 986,4 hPa 0,0 l/m 0 min 0 min 0 W/m 8,4 km/h (2 Bft)
01.02.2015 04:48 -0,6 C -1,1 C 96 % 986,5 hPa 0,0 l/m 0 min 0 min 0 W/m 12,6 km/h (3 Bft)
01.02.2015 04:50 -0,6 C -1,1 C 96 % 986,4 hPa 0,0 l/m 0 min 0 min 0 W/m 6,3 km/h (2 Bft)
01.02.2015 04:52 -0,6 C -1,1 C 96 % 986,5 hPa 0,0 l/m 0 min 0 min 0 W/m 10,5 km/h (2 Bft)
01.02.2015 04:54 -0,6 C -1,1 C 96 % 986,5 hPa 0,0 l/m 0 min 0 min 0 W/m 10,5 km/h (2 Bft)
01.02.2015 04:56 -0,6 C -1,1 C 96 % 986,4 hPa 0,0 l/m 0 min 0 min 0 W/m 10,5 km/h (2 Bft)
01.02.2015 04:58 -0,6 C -1,1 C 96 % 986,5 hPa 0,0 l/m 0 min 0 min 0 W/m 10,5 km/h (2 Bft)
01.02.2015 05:00 -0,5 C -1,1 C 96 % 986,5 hPa 0,0 l/m 0 min 0 min 0 W/m 6,3 km/h (2 Bft)
01.02.2015 05:02 -0,5 C -1,1 C 96 % 986,5 hPa 0,0 l/m 0 min 0 min 0 W/m 6,3 km/h (2 Bft)
01.02.2015 05:04 -0,5 C -1,1 C 96 % 986,5 hPa 0,0 l/m 0 min 0 min 0 W/m 8,4 km/h (2 Bft)
01.02.2015 05:06 -0,5 C -1,1 C 96 % 986,5 hPa 0,0 l/m 0 min 0 min 0 W/m 10,5 km/h (2 Bft)
01.02.2015 05:08 -0,4 C -1,1 C 96 % 986,5 hPa 0,0 l/m 0 min 0 min 0 W/m 10,5 km/h (2 Bft)
01.02.2015 05:10 -0,4 C -1,1 C 96 % 986,4 hPa 0,0 l/m 0 min 0 min 0 W/m 8,4 km/h (2 Bft)
01.02.2015 05:12 -0,4 C -1,1 C 96 % 986,4 hPa 0,0 l/m 0 min 0 min 0 W/m 6,3 km/h (2 Bft)
01.02.2015 05:14 -0,4 C -1,1 C 96 % 986,5 hPa 0,0 l/m 0 min 0 min 0 W/m 6,3 km/h (2 Bft)
01.02.2015 05:16 -0,3 C -1,1 C 96 % 986,5 hPa 0,0 l/m 0 min 0 min 0 W/m 8,4 km/h (2 Bft)
01.02.2015 05:18 -0,4 C -1,1 C 96 % 986,5 hPa 0,0 l/m 0 min 0 min 0 W/m 10,5 km/h (2 Bft)
01.02.2015 05:20 -0,3 C -1,1 C 96 % 986,5 hPa 0,0 l/m 0 min 0 min 0 W/m 10,5 km/h (2 Bft)
01.02.2015 05:22 -0,3 C -1,1 C 96 % 986,5 hPa 0,0 l/m 0 min 0 min 0 W/m 8,4 km/h (2 Bft)
01.02.2015 05:24 -0,3 C -1,1 C 96 % 986,5 hPa 0,0 l/m 0 min 0 min 0 W/m 10,5 km/h (2 Bft)
01.02.2015 05:26 -0,3 C -1,1 C 96 % 986,6 hPa 0,0 l/m 0 min 0 min 0 W/m 14,6 km/h (3 Bft)
01.02.2015 05:28 -0,2 C -1,1 C 96 % 986,6 hPa 0,0 l/m 0 min 0 min 0 W/m 12,6 km/h (3 Bft)
01.02.2015 05:30 -0,2 C -1,1 C 96 % 986,6 hPa 0,0 l/m 0 min 0 min 0 W/m 8,4 km/h (2 Bft)
01.02.2015 05:32 -0,2 C -1,1 C 96 % 986,6 hPa 0,0 l/m 0 min 0 min 0 W/m 8,4 km/h (2 Bft)
01.02.2015 05:34 -0,2 C -0,6 C 96 % 986,6 hPa 0,0 l/m 0 min 0 min 0 W/m 8,4 km/h (2 Bft)
01.02.2015 05:36 -0,1 C -0,6 C 96 % 986,6 hPa 0,0 l/m 0 min 0 min 0 W/m 12,6 km/h (3 Bft)
01.02.2015 05:38 -0,1 C -0,6 C 96 % 986,6 hPa 0,0 l/m 0 min 0 min 0 W/m 10,5 km/h (2 Bft)
01.02.2015 05:40 -0,1 C -0,6 C 96 % 986,6 hPa 0,0 l/m 0 min 0 min 0 W/m 10,5 km/h (2 Bft)
01.02.2015 05:42 -0,1 C -0,6 C 96 % 986,6 hPa 0,0 l/m 0 min 0 min 0 W/m 14,6 km/h (3 Bft)
01.02.2015 05:44 -0,1 C -0,6 C 96 % 986,6 hPa 0,0 l/m 0 min 0 min 0 W/m 12,6 km/h (3 Bft)
01.02.2015 05:46 0,0 C -0,6 C 96 % 986,6 hPa 0,0 l/m 0 min 0 min 0 W/m 16,7 km/h (3 Bft)
01.02.2015 05:48 0,0 C -0,6 C 96 % 986,7 hPa 0,0 l/m 0 min 0 min 0 W/m 18,8 km/h (3 Bft)
01.02.2015 05:50 0,1 C -0,6 C 97 % 986,7 hPa 0,0 l/m 0 min 0 min 0 W/m 20,9 km/h (4 Bft)
01.02.2015 05:52 0,1 C -0,6 C 97 % 986,7 hPa 0,0 l/m 0 min 0 min 0 W/m 14,6 km/h (3 Bft)
01.02.2015 05:54 0,1 C -0,6 C 97 % 986,7 hPa 0,0 l/m 0 min 0 min 0 W/m 16,7 km/h (3 Bft)
01.02.2015 05:56 0,2 C -0,6 C 97 % 986,7 hPa 0,0 l/m 0 min 0 min 0 W/m 14,6 km/h (3 Bft)
01.02.2015 05:58 0,2 C -0,6 C 97 % 986,7 hPa 0,0 l/m 0 min 0 min 0 W/m 14,6 km/h (3 Bft)
01.02.2015 06:00 0,2 C -0,6 C 96 % 986,7 hPa 0,0 l/m 0 min 0 min 0 W/m 16,7 km/h (3 Bft)
01.02.2015 06:02 0,3 C -0,6 C 96 % 986,7 hPa 0,0 l/m 0 min 0 min 0 W/m 20,9 km/h (4 Bft)
01.02.2015 06:06 0,3 C -0,6 C 96 % 986,7 hPa 0,0 l/m 0 min 0 min 0 W/m 23,0 km/h (4 Bft)
01.02.2015 06:08 0,4 C -0,6 C 96 % 986,7 hPa 0,0 l/m 0 min 0 min 0 W/m 20,9 km/h (4 Bft)
01.02.2015 06:10 0,4 C -0,6 C 96 % 986,7 hPa 0,0 l/m 0 min 0 min 0 W/m 18,8 km/h (3 Bft)
01.02.2015 06:12 0,4 C -0,6 C 97 % 986,7 hPa 0,0 l/m 0 min 0 min 0 W/m 20,9 km/h (4 Bft)
01.02.2015 06:14 0,4 C -0,6 C 97 % 986,7 hPa 0,0 l/m 0 min 0 min 0 W/m 16,7 km/h (3 Bft)
01.02.2015 06:16 0,4 C -0,6 C 97 % 986,7 hPa 0,0 l/m 0 min 0 min 0 W/m 20,9 km/h (4 Bft)
01.02.2015 06:18 0,4 C -0,6 C 97 % 986,7 hPa 0,0 l/m 0 min 0 min 0 W/m 16,7 km/h (3 Bft)
01.02.2015 06:20 0,5 C -0,6 C 97 % 986,7 hPa 0,0 l/m 0 min 0 min 0 W/m 16,7 km/h (3 Bft)
01.02.2015 06:22 0,5 C -0,6 C 97 % 986,7 hPa 0,0 l/m 0 min 0 min 0 W/m 16,7 km/h (3 Bft)
01.02.2015 06:24 0,5 C -0,6 C 97 % 986,7 hPa 0,0 l/m 0 min 0 min 0 W/m 12,6 km/h (3 Bft)
01.02.2015 06:26 0,5 C -0,6 C 97 % 986,8 hPa 0,0 l/m 0 min 0 min 0 W/m 16,7 km/h (3 Bft)
01.02.2015 06:28 0,5 C -0,6 C 97 % 986,7 hPa 0,0 l/m 0 min 0 min 0 W/m 14,6 km/h (3 Bft)
01.02.2015 06:30 0,5 C -0,6 C 97 % 986,8 hPa 0,0 l/m 0 min 0 min 0 W/m 16,7 km/h (3 Bft)
01.02.2015 06:32 0,5 C 0,0 C 97 % 986,8 hPa 0,0 l/m 0 min 0 min 0 W/m 12,6 km/h (3 Bft)
01.02.2015 06:34 0,5 C -0,6 C 97 % 986,8 hPa 0,0 l/m 0 min 0 min 0 W/m 18,8 km/h (3 Bft)
01.02.2015 06:36 0,5 C -0,6 C 97 % 986,9 hPa 0,0 l/m 0 min 0 min 0 W/m 14,6 km/h (3 Bft)
01.02.2015 06:38 0,5 C 0,0 C 97 % 986,8 hPa 0,0 l/m 0 min 0 min 0 W/m 12,6 km/h (3 Bft)
01.02.2015 06:40 0,5 C 0,0 C 97 % 986,9 hPa 0,0 l/m 0 min 0 min 0 W/m 16,7 km/h (3 Bft)
01.02.2015 06:42 0,5 C 0,0 C 97 % 986,9 hPa 0,0 l/m 0 min 0 min 0 W/m 12,6 km/h (3 Bft)
01.02.2015 06:44 0,6 C 0,0 C 97 % 986,9 hPa 0,0 l/m 0 min 0 min 0 W/m 14,6 km/h (3 Bft)
01.02.2015 06:46 0,5 C 0,0 C 97 % 986,9 hPa 0,0 l/m 0 min 0 min 0 W/m 18,8 km/h (3 Bft)
01.02.2015 06:48 0,6 C 0,0 C 97 % 986,9 hPa 0,0 l/m 0 min 0 min 0 W/m 18,8 km/h (3 Bft)
01.02.2015 06:50 0,6 C 0,0 C 97 % 986,9 hPa 0,0 l/m 0 min 0 min 0 W/m 14,6 km/h (3 Bft)
01.02.2015 06:52 0,6 C 0,0 C 97 % 987,0 hPa 0,0 l/m 0 min 0 min 0 W/m 14,6 km/h (3 Bft)
01.02.2015 06:54 0,6 C 0,0 C 97 % 987,0 hPa 0,0 l/m 0 min 0 min 0 W/m 20,9 km/h (4 Bft)
01.02.2015 06:56 0,6 C 0,0 C 97 % 987,1 hPa 0,0 l/m 0 min 0 min 0 W/m 27,2 km/h (4 Bft)
01.02.2015 06:58 0,7 C 0,0 C 97 % 987,0 hPa 0,0 l/m 0 min 0 min 0 W/m 20,9 km/h (4 Bft)
01.02.2015 07:00 0,7 C 0,0 C 97 % 987,0 hPa 0,0 l/m 0 min 0 min 0 W/m 16,7 km/h (3 Bft)
01.02.2015 07:02 0,7 C 0,0 C 97 % 987,0 hPa 0,0 l/m 0 min 0 min 0 W/m 14,6 km/h (3 Bft)
01.02.2015 07:04 0,7 C 0,0 C 97 % 987,0 hPa 0,0 l/m 0 min 0 min 0 W/m 25,1 km/h (4 Bft)
01.02.2015 07:06 0,7 C 0,0 C 97 % 987,0 hPa 0,0 l/m 0 min 0 min 0 W/m 23,0 km/h (4 Bft)
01.02.2015 07:08 0,7 C 0,0 C 97 % 987,0 hPa 0,0 l/m 0 min 0 min 0 W/m 14,6 km/h (3 Bft)
01.02.2015 07:10 0,7 C 0,0 C 97 % 987,0 hPa 0,0 l/m 0 min 0 min 0 W/m 20,9 km/h (4 Bft)
01.02.2015 07:12 0,7 C 0,0 C 97 % 987,0 hPa 0,0 l/m 0 min 0 min 0 W/m 12,6 km/h (3 Bft)
01.02.2015 07:14 0,7 C 0,0 C 97 % 987,0 hPa 0,0 l/m 0 min 0 min 0 W/m 10,5 km/h (2 Bft)
01.02.2015 07:16 0,7 C 0,0 C 97 % 987,0 hPa 0,0 l/m 0 min 0 min 0 W/m 14,6 km/h (3 Bft)
01.02.2015 07:18 0,7 C 0,0 C 97 % 987,0 hPa 0,0 l/m 0 min 0 min 0 W/m 18,8 km/h (3 Bft)
01.02.2015 07:20 0,7 C 0,0 C 97 % 987,0 hPa 0,0 l/m 0 min 0 min 0 W/m 10,5 km/h (2 Bft)
01.02.2015 07:22 0,8 C 0,0 C 97 % 987,1 hPa 0,0 l/m 0 min 0 min 0 W/m 8,4 km/h (2 Bft)
01.02.2015 07:24 0,8 C 0,0 C 97 % 987,1 hPa 0,0 l/m 0 min 0 min 0 W/m 16,7 km/h (3 Bft)
01.02.2015 07:26 0,8 C 0,0 C 97 % 987,2 hPa 0,0 l/m 0 min 2 min 0 W/m 16,7 km/h (3 Bft)
01.02.2015 07:28 0,8 C 0,0 C 97 % 987,2 hPa 0,2 l/m 0 min 2 min 0 W/m 8,4 km/h (2 Bft)
01.02.2015 07:30 0,8 C 0,0 C 97 % 987,2 hPa 0,0 l/m 0 min 2 min 0 W/m 12,6 km/h (3 Bft)
01.02.2015 07:32 0,8 C 0,0 C 97 % 987,1 hPa 0,0 l/m 0 min 0 min 0 W/m 10,5 km/h (2 Bft)
01.02.2015 07:34 0,8 C 0,0 C 97 % 987,3 hPa 0,0 l/m 0 min 0 min 0 W/m 12,6 km/h (3 Bft)
01.02.2015 07:36 0,8 C 0,0 C 97 % 987,2 hPa 0,0 l/m 0 min 0 min 0 W/m 12,6 km/h (3 Bft)
01.02.2015 07:38 0,8 C 0,0 C 97 % 987,2 hPa 0,0 l/m 0 min 0 min 0 W/m 14,6 km/h (3 Bft)
01.02.2015 07:40 0,8 C 0,0 C 97 % 987,1 hPa 0,0 l/m 0 min 0 min 0 W/m 12,6 km/h (3 Bft)
01.02.2015 07:42 0,9 C 0,0 C 97 % 987,2 hPa 0,0 l/m 0 min 0 min 0 W/m 14,6 km/h (3 Bft)
01.02.2015 07:44 0,9 C 0,0 C 97 % 987,2 hPa 0,0 l/m 0 min 0 min 0 W/m 12,6 km/h (3 Bft)
01.02.2015 07:46 0,9 C 0,0 C 97 % 987,2 hPa 0,0 l/m 0 min 0 min 0 W/m 14,6 km/h (3 Bft)
01.02.2015 07:48 0,9 C 0,0 C 97 % 987,2 hPa 0,0 l/m 0 min 0 min 0 W/m 16,7 km/h (3 Bft)
01.02.2015 07:50 0,9 C 0,0 C 97 % 987,1 hPa 0,0 l/m 0 min 0 min 0 W/m 12,6 km/h (3 Bft)
01.02.2015 07:52 0,9 C 0,0 C 97 % 987,2 hPa 0,0 l/m 0 min 0 min 0 W/m 12,6 km/h (3 Bft)
01.02.2015 07:54 0,9 C 0,0 C 97 % 987,1 hPa 0,0 l/m 0 min 0 min 0 W/m 12,6 km/h (3 Bft)
01.02.2015 07:56 0,9 C 0,0 C 97 % 987,2 hPa 0,0 l/m 0 min 0 min 0 W/m 16,7 km/h (3 Bft)
01.02.2015 07:58 0,9 C 0,0 C 97 % 987,2 hPa 0,0 l/m 0 min 0 min 0 W/m 14,6 km/h (3 Bft)
01.02.2015 08:00 0,9 C 0,0 C 97 % 987,2 hPa 0,0 l/m 0 min 0 min 0 W/m 16,7 km/h (3 Bft)
01.02.2015 08:02 0,9 C 0,0 C 97 % 987,2 hPa 0,0 l/m 0 min 0 min 0 W/m 10,5 km/h (2 Bft)
01.02.2015 08:04 1,0 C 0,0 C 97 % 987,2 hPa 0,0 l/m 0 min 0 min 0 W/m 12,6 km/h (3 Bft)
01.02.2015 08:06 1,0 C 0,0 C 97 % 987,2 hPa 0,0 l/m 0 min 0 min 0 W/m 10,5 km/h (2 Bft)
01.02.2015 08:08 1,0 C 0,0 C 97 % 987,3 hPa 0,0 l/m 0 min 0 min 0 W/m 8,4 km/h (2 Bft)
01.02.2015 08:10 1,0 C 0,0 C 97 % 987,3 hPa 0,0 l/m 0 min 0 min 0 W/m 10,5 km/h (2 Bft)
01.02.2015 08:12 1,0 C 0,0 C 97 % 987,3 hPa 0,0 l/m 0 min 0 min 0 W/m 16,7 km/h (3 Bft)
01.02.2015 08:14 1,0 C 0,6 C 97 % 987,3 hPa 0,0 l/m 0 min 0 min 0 W/m 12,6 km/h (3 Bft)
01.02.2015 08:16 1,1 C 0,0 C 97 % 987,4 hPa 0,0 l/m 0 min 0 min 0 W/m 8,4 km/h (2 Bft)
01.02.2015 08:18 1,1 C 0,0 C 97 % 987,3 hPa 0,0 l/m 0 min 0 min 0 W/m 8,4 km/h (2 Bft)
01.02.2015 08:20 1,1 C 0,0 C 97 % 987,4 hPa 0,0 l/m 0 min 0 min 1 W/m 10,5 km/h (2 Bft)
01.02.2015 08:22 1,1 C 0,0 C 97 % 987,5 hPa 0,0 l/m 0 min 0 min 5 W/m 12,6 km/h (3 Bft)
01.02.2015 08:24 1,1 C 0,6 C 97 % 987,5 hPa 0,0 l/m 0 min 0 min 5 W/m 8,4 km/h (2 Bft)
01.02.2015 08:26 1,1 C 0,6 C 97 % 987,5 hPa 0,0 l/m 0 min 0 min 7 W/m 6,3 km/h (2 Bft)
01.02.2015 08:28 1,1 C 0,6 C 97 % 987,5 hPa 0,0 l/m 0 min 0 min 7 W/m 18,8 km/h (3 Bft)
01.02.2015 08:30 1,1 C 0,6 C 97 % 987,5 hPa 0,0 l/m 0 min 0 min 6 W/m 10,5 km/h (2 Bft)
01.02.2015 08:32 1,1 C 0,6 C 97 % 987,5 hPa 0,0 l/m 0 min 0 min 7 W/m 10,5 km/h (2 Bft)
01.02.2015 08:34 1,1 C 0,6 C 97 % 987,5 hPa 0,0 l/m 0 min 0 min 7 W/m 10,5 km/h (2 Bft)
01.02.2015 08:36 1,1 C 0,6 C 97 % 987,5 hPa 0,0 l/m 0 min 0 min 7 W/m 10,5 km/h (2 Bft)
01.02.2015 08:38 1,1 C 0,6 C 97 % 987,5 hPa 0,0 l/m 0 min 0 min 7 W/m 8,4 km/h (2 Bft)
01.02.2015 08:40 1,1 C 0,6 C 97 % 987,5 hPa 0,0 l/m 0 min 0 min 8 W/m 16,7 km/h (3 Bft)
01.02.2015 08:42 1,1 C 0,6 C 97 % 987,6 hPa 0,0 l/m 0 min 0 min 9 W/m 14,6 km/h (3 Bft)
01.02.2015 08:44 1,1 C 0,6 C 97 % 987,6 hPa 0,0 l/m 0 min 0 min 9 W/m 8,4 km/h (2 Bft)
01.02.2015 08:46 1,2 C 0,6 C 97 % 987,6 hPa 0,0 l/m 0 min 0 min 9 W/m 14,6 km/h (3 Bft)
01.02.2015 08:48 1,2 C 0,6 C 97 % 987,6 hPa 0,0 l/m 0 min 0 min 9 W/m 8,4 km/h (2 Bft)
01.02.2015 08:50 1,2 C 0,6 C 97 % 987,7 hPa 0,0 l/m 0 min 0 min 10 W/m 12,6 km/h (3 Bft)
01.02.2015 08:52 1,2 C 0,6 C 97 % 987,7 hPa 0,0 l/m 0 min 0 min 11 W/m 12,6 km/h (3 Bft)
01.02.2015 08:54 1,2 C 0,6 C 97 % 987,8 hPa 0,0 l/m 0 min 0 min 11 W/m 12,6 km/h (3 Bft)
01.02.2015 08:56 1,2 C 0,6 C 97 % 987,7 hPa 0,0 l/m 0 min 0 min 11 W/m 12,6 km/h (3 Bft)
01.02.2015 08:58 1,2 C 0,6 C 97 % 987,8 hPa 0,0 l/m 0 min 0 min 12 W/m 8,4 km/h (2 Bft)
01.02.2015 09:00 1,2 C 0,6 C 97 % 987,8 hPa 0,0 l/m 0 min 0 min 14 W/m 12,6 km/h (3 Bft)
01.02.2015 09:02 1,2 C 0,6 C 97 % 987,8 hPa 0,0 l/m 0 min 0 min 14 W/m 14,6 km/h (3 Bft)
01.02.2015 09:04 1,2 C 0,6 C 97 % 987,8 hPa 0,0 l/m 0 min 0 min 15 W/m 10,5 km/h (2 Bft)
01.02.2015 09:06 1,2 C 0,6 C 97 % 987,8 hPa 0,0 l/m 0 min 0 min 16 W/m 16,7 km/h (3 Bft)
01.02.2015 09:08 1,2 C 0,6 C 97 % 987,8 hPa 0,0 l/m 0 min 0 min 16 W/m 16,7 km/h (3 Bft)
01.02.2015 09:10 1,3 C 0,6 C 97 % 987,8 hPa 0,0 l/m 0 min 0 min 16 W/m 10,5 km/h (2 Bft)
01.02.2015 09:12 1,3 C 0,6 C 97 % 987,9 hPa 0,0 l/m 0 min 0 min 14 W/m 14,6 km/h (3 Bft)
01.02.2015 09:14 1,3 C 0,6 C 97 % 987,9 hPa 0,0 l/m 0 min 0 min 16 W/m 16,7 km/h (3 Bft)
01.02.2015 09:16 1,3 C 0,6 C 97 % 987,9 hPa 0,0 l/m 0 min 0 min 19 W/m 16,7 km/h (3 Bft)
01.02.2015 09:18 1,3 C 0,6 C 97 % 987,9 hPa 0,0 l/m 0 min 0 min 21 W/m 12,6 km/h (3 Bft)
01.02.2015 09:20 1,3 C 0,6 C 97 % 987,9 hPa 0,0 l/m 0 min 0 min 19 W/m 12,6 km/h (3 Bft)
01.02.2015 09:22 1,3 C 0,6 C 97 % 987,9 hPa 0,0 l/m 0 min 0 min 19 W/m 10,5 km/h (2 Bft)
01.02.2015 09:24 1,3 C 0,6 C 97 % 987,9 hPa 0,0 l/m 0 min 0 min 23 W/m 12,6 km/h (3 Bft)
01.02.2015 09:26 1,3 C 0,6 C 97 % 987,9 hPa 0,0 l/m 0 min 0 min 23 W/m 16,7 km/h (3 Bft)
01.02.2015 09:28 1,3 C 0,6 C 97 % 987,9 hPa 0,0 l/m 0 min 0 min 26 W/m 12,6 km/h (3 Bft)
01.02.2015 09:30 1,3 C 0,6 C 97 % 988,0 hPa 0,0 l/m 0 min 0 min 32 W/m 14,6 km/h (3 Bft)
01.02.2015 09:32 1,3 C 0,0 C 97 % 988,0 hPa 0,0 l/m 0 min 2 min 37 W/m 16,7 km/h (3 Bft)
01.02.2015 09:34 1,3 C 0,0 C 97 % 988,0 hPa 0,0 l/m 0 min 2 min 36 W/m 14,6 km/h (3 Bft)
01.02.2015 09:36 1,3 C 0,0 C 97 % 988,0 hPa 0,0 l/m 0 min 2 min 33 W/m 12,6 km/h (3 Bft)
01.02.2015 09:38 1,3 C 0,0 C 97 % 988,0 hPa 0,0 l/m 0 min 2 min 35 W/m 12,6 km/h (3 Bft)
01.02.2015 09:40 1,3 C 0,0 C 97 % 988,0 hPa 0,0 l/m 0 min 2 min 40 W/m 14,6 km/h (3 Bft)
01.02.2015 09:42 1,2 C 0,0 C 97 % 988,0 hPa 0,0 l/m 0 min 2 min 48 W/m 14,6 km/h (3 Bft)
01.02.2015 09:44 1,2 C 0,0 C 97 % 988,0 hPa 0,0 l/m 0 min 2 min 55 W/m 8,4 km/h (2 Bft)
01.02.2015 09:46 1,2 C 0,0 C 97 % 988,1 hPa 0,0 l/m 0 min 2 min 53 W/m 10,5 km/h (2 Bft)
01.02.2015 09:48 1,2 C 0,0 C 97 % 988,1 hPa 0,0 l/m 0 min 2 min 44 W/m 12,6 km/h (3 Bft)
01.02.2015 09:50 1,2 C -0,6 C 97 % 988,0 hPa 0,0 l/m 0 min 2 min 29 W/m 18,8 km/h (3 Bft)
01.02.2015 09:52 1,2 C -0,6 C 97 % 988,0 hPa 0,0 l/m 0 min 2 min 25 W/m 10,5 km/h (2 Bft)
01.02.2015 09:54 1,1 C -0,6 C 97 % 988,1 hPa 0,0 l/m 0 min 2 min 18 W/m 8,4 km/h (2 Bft)
01.02.2015 09:56 1,1 C -0,6 C 97 % 988,1 hPa 0,0 l/m 0 min 2 min 16 W/m 12,6 km/h (3 Bft)
01.02.2015 09:58 1,1 C -0,6 C 97 % 988,1 hPa 0,0 l/m 0 min 2 min 17 W/m 10,5 km/h (2 Bft)
01.02.2015 10:00 1,0 C -0,6 C 97 % 988,1 hPa 0,0 l/m 0 min 2 min 17 W/m 8,4 km/h (2 Bft)
01.02.2015 10:02 1,0 C -0,6 C 97 % 988,2 hPa 0,0 l/m 0 min 2 min 16 W/m 6,3 km/h (2 Bft)
01.02.2015 10:04 1,0 C -0,6 C 96 % 988,3 hPa 0,0 l/m 0 min 2 min 16 W/m 10,5 km/h (2 Bft)
01.02.2015 10:06 0,9 C 0,0 C 96 % 988,3 hPa 0,0 l/m 0 min 2 min 19 W/m 10,5 km/h (2 Bft)
01.02.2015 10:08 0,9 C 0,0 C 96 % 988,3 hPa 0,0 l/m 0 min 2 min 25 W/m 8,4 km/h (2 Bft)
01.02.2015 10:10 0,9 C 0,0 C 96 % 988,3 hPa 0,0 l/m 0 min 2 min 34 W/m 10,5 km/h (2 Bft)
01.02.2015 10:12 0,9 C 0,0 C 96 % 988,3 hPa 0,0 l/m 0 min 2 min 48 W/m 6,3 km/h (2 Bft)
01.02.2015 10:14 0,9 C 0,0 C 96 % 988,4 hPa 0,2 l/m 0 min 2 min 60 W/m 12,6 km/h (3 Bft)
01.02.2015 10:16 0,9 C 0,0 C 96 % 988,3 hPa 0,0 l/m 0 min 2 min 64 W/m 8,4 km/h (2 Bft)
01.02.2015 10:18 0,9 C 0,0 C 96 % 988,4 hPa 0,0 l/m 0 min 2 min 60 W/m 8,4 km/h (2 Bft)
01.02.2015 10:20 0,9 C 0,0 C 96 % 988,4 hPa 0,0 l/m 0 min 2 min 59 W/m 10,5 km/h (2 Bft)
01.02.2015 10:22 0,9 C 0,6 C 96 % 988,4 hPa 0,0 l/m 0 min 2 min 62 W/m 8,4 km/h (2 Bft)
01.02.2015 10:24 1,0 C 0,6 C 96 % 988,5 hPa 0,0 l/m 0 min 2 min 71 W/m 8,4 km/h (2 Bft)
01.02.2015 10:26 1,0 C 0,6 C 96 % 988,4 hPa 0,0 l/m 0 min 2 min 78 W/m 12,6 km/h (3 Bft)
01.02.2015 10:28 1,0 C 0,6 C 97 % 988,5 hPa 0,0 l/m 0 min 2 min 87 W/m 12,6 km/h (3 Bft)
01.02.2015 10:30 1,1 C 0,6 C 97 % 988,5 hPa 0,0 l/m 0 min 2 min 83 W/m 10,5 km/h (2 Bft)
01.02.2015 10:32 1,1 C 0,6 C 97 % 988,5 hPa 0,0 l/m 0 min 2 min 77 W/m 10,5 km/h (2 Bft)
01.02.2015 10:34 1,1 C 0,6 C 97 % 988,5 hPa 0,0 l/m 0 min 2 min 80 W/m 16,7 km/h (3 Bft)
01.02.2015 10:36 1,2 C 0,6 C 97 % 988,5 hPa 0,0 l/m 0 min 0 min 82 W/m 16,7 km/h (3 Bft)
01.02.2015 10:38 1,2 C 0,6 C 97 % 988,5 hPa 0,0 l/m 0 min 0 min 84 W/m 14,6 km/h (3 Bft)
01.02.2015 10:40 1,2 C 0,6 C 97 % 988,5 hPa 0,0 l/m 0 min 0 min 85 W/m 14,6 km/h (3 Bft)
01.02.2015 10:42 1,3 C 0,6 C 97 % 988,6 hPa 0,0 l/m 0 min 0 min 82 W/m 16,7 km/h (3 Bft)
01.02.2015 10:44 1,3 C 0,6 C 97 % 988,5 hPa 0,0 l/m 0 min 0 min 77 W/m 14,6 km/h (3 Bft)
01.02.2015 10:46 1,3 C 1,1 C 97 % 988,6 hPa 0,0 l/m 0 min 0 min 78 W/m 14,6 km/h (3 Bft)
01.02.2015 10:48 1,4 C 1,1 C 97 % 988,6 hPa 0,0 l/m 0 min 0 min 82 W/m 16,7 km/h (3 Bft)
01.02.2015 10:50 1,4 C 1,1 C 97 % 988,6 hPa 0,0 l/m 0 min 0 min 90 W/m 18,8 km/h (3 Bft)
01.02.2015 10:52 1,4 C 1,1 C 97 % 988,6 hPa 0,0 l/m 0 min 0 min 97 W/m 18,8 km/h (3 Bft)
01.02.2015 10:54 1,4 C 1,1 C 97 % 988,6 hPa 0,0 l/m 0 min 0 min 97 W/m 14,6 km/h (3 Bft)
01.02.2015 10:56 1,5 C 1,1 C 97 % 988,6 hPa 0,0 l/m 0 min 0 min 85 W/m 10,5 km/h (2 Bft)
01.02.2015 10:58 1,5 C 1,1 C 97 % 988,6 hPa 0,0 l/m 0 min 0 min 80 W/m 12,6 km/h (3 Bft)
01.02.2015 11:00 1,6 C 1,1 C 97 % 988,7 hPa 0,0 l/m 0 min 0 min 88 W/m 16,7 km/h (3 Bft)
01.02.2015 11:02 1,6 C 1,1 C 97 % 988,7 hPa 0,0 l/m 0 min 0 min 97 W/m 16,7 km/h (3 Bft)
01.02.2015 11:04 1,7 C 1,1 C 97 % 988,7 hPa 0,0 l/m 0 min 0 min 94 W/m 16,7 km/h (3 Bft)
01.02.2015 11:06 1,7 C 1,1 C 97 % 988,7 hPa 0,0 l/m 0 min 0 min 93 W/m 16,7 km/h (3 Bft)
01.02.2015 11:08 1,7 C 1,1 C 97 % 988,7 hPa 0,0 l/m 0 min 0 min 92 W/m 12,6 km/h (3 Bft)
01.02.2015 11:10 1,7 C 1,1 C 97 % 988,7 hPa 0,0 l/m 0 min 0 min 95 W/m 14,6 km/h (3 Bft)
01.02.2015 11:12 1,7 C 1,1 C 97 % 988,7 hPa 0,0 l/m 0 min 0 min 102 W/m 18,8 km/h (3 Bft)
01.02.2015 11:14 1,8 C 1,1 C 97 % 988,8 hPa 0,0 l/m 0 min 0 min 106 W/m 20,9 km/h (4 Bft)
01.02.2015 11:16 1,8 C 1,7 C 97 % 988,8 hPa 0,0 l/m 0 min 0 min 111 W/m 18,8 km/h (3 Bft)
01.02.2015 11:18 1,9 C 1,7 C 97 % 988,9 hPa 0,0 l/m 0 min 0 min 110 W/m 18,8 km/h (3 Bft)
01.02.2015 11:20 1,9 C 1,7 C 97 % 988,9 hPa 0,0 l/m 0 min 0 min 110 W/m 18,8 km/h (3 Bft)
01.02.2015 11:22 1,9 C 1,7 C 97 % 988,9 hPa 0,0 l/m 0 min 0 min 119 W/m 16,7 km/h (3 Bft)
01.02.2015 11:24 2,0 C 1,7 C 97 % 988,9 hPa 0,0 l/m 0 min 0 min 125 W/m 18,8 km/h (3 Bft)
01.02.2015 11:26 2,0 C 1,7 C 97 % 988,9 hPa 0,0 l/m 0 min 0 min 133 W/m 18,8 km/h (3 Bft)
01.02.2015 11:28 2,1 C 1,7 C 97 % 988,9 hPa 0,0 l/m 0 min 0 min 137 W/m 16,7 km/h (3 Bft)
01.02.2015 11:30 2,1 C 1,7 C 97 % 989,0 hPa 0,0 l/m 0 min 0 min 134 W/m 16,7 km/h (3 Bft)
01.02.2015 11:32 2,1 C 1,7 C 97 % 989,0 hPa 0,0 l/m 0 min 0 min 153 W/m 16,7 km/h (3 Bft)
01.02.2015 11:34 2,2 C 1,7 C 97 % 989,0 hPa 0,0 l/m 0 min 0 min 163 W/m 18,8 km/h (3 Bft)
01.02.2015 11:36 2,2 C 1,7 C 97 % 989,0 hPa 0,0 l/m 0 min 0 min 135 W/m 18,8 km/h (3 Bft)
01.02.2015 11:38 2,3 C 1,7 C 97 % 989,0 hPa 0,0 l/m 0 min 0 min 153 W/m 16,7 km/h (3 Bft)
01.02.2015 11:40 2,3 C 1,7 C 97 % 989,0 hPa 0,0 l/m 2 min 0 min 204 W/m 18,8 km/h (3 Bft)
01.02.2015 11:42 2,3 C 2,2 C 97 % 989,1 hPa 0,0 l/m 2 min 0 min 235 W/m 16,7 km/h (3 Bft)
01.02.2015 11:44 2,4 C 2,2 C 97 % 989,0 hPa 0,0 l/m 0 min 0 min 165 W/m 18,8 km/h (3 Bft)
01.02.2015 11:46 2,4 C 1,7 C 97 % 989,0 hPa 0,0 l/m 0 min 0 min 118 W/m 20,9 km/h (4 Bft)
01.02.2015 11:48 2,4 C 1,7 C 97 % 989,0 hPa 0,0 l/m 0 min 0 min 168 W/m 14,6 km/h (3 Bft)
01.02.2015 11:50 2,5 C 1,7 C 97 % 989,0 hPa 0,0 l/m 2 min 0 min 217 W/m 16,7 km/h (3 Bft)
01.02.2015 11:52 2,6 C 2,2 C 97 % 989,0 hPa 0,0 l/m 2 min 0 min 300 W/m 14,6 km/h (3 Bft)
01.02.2015 11:54 2,6 C 2,2 C 97 % 989,0 hPa 0,0 l/m 2 min 0 min 325 W/m 14,6 km/h (3 Bft)
01.02.2015 11:56 2,7 C 2,2 C 97 % 989,0 hPa 0,0 l/m 2 min 0 min 372 W/m 18,8 km/h (3 Bft)
01.02.2015 11:58 2,8 C 2,2 C 97 % 989,0 hPa 0,0 l/m 2 min 0 min 349 W/m 18,8 km/h (3 Bft)
01.02.2015 12:00 2,9 C 2,2 C 97 % 989,0 hPa 0,0 l/m 2 min 0 min 392 W/m 16,7 km/h (3 Bft)
01.02.2015 12:02 2,9 C 2,2 C 97 % 989,0 hPa 0,0 l/m 2 min 0 min 391 W/m 20,9 km/h (4 Bft)
01.02.2015 12:06 3,1 C 2,2 C 97 % 989,0 hPa 0,0 l/m 2 min 0 min 288 W/m 23,0 km/h (4 Bft)
01.02.2015 12:08 3,2 C 2,2 C 97 % 989,0 hPa 0,0 l/m 2 min 0 min 228 W/m 16,7 km/h (3 Bft)
01.02.2015 12:10 3,2 C 2,8 C 97 % 989,1 hPa 0,0 l/m 0 min 0 min 176 W/m 18,8 km/h (3 Bft)
01.02.2015 12:12 3,3 C 2,8 C 97 % 989,1 hPa 0,0 l/m 0 min 0 min 156 W/m 16,7 km/h (3 Bft)
01.02.2015 12:14 3,3 C 2,8 C 97 % 989,1 hPa 0,0 l/m 0 min 0 min 135 W/m 16,7 km/h (3 Bft)
01.02.2015 12:16 3,3 C 2,8 C 97 % 989,2 hPa 0,0 l/m 0 min 0 min 120 W/m 16,7 km/h (3 Bft)
01.02.2015 12:18 3,3 C 2,8 C 97 % 989,2 hPa 0,0 l/m 0 min 0 min 122 W/m 16,7 km/h (3 Bft)
01.02.2015 12:20 3,3 C 2,2 C 97 % 989,2 hPa 0,0 l/m 0 min 0 min 112 W/m 16,7 km/h (3 Bft)
01.02.2015 12:22 3,3 C 2,2 C 97 % 989,3 hPa 0,0 l/m 0 min 0 min 105 W/m 16,7 km/h (3 Bft)
01.02.2015 12:24 3,3 C 2,2 C 97 % 989,2 hPa 0,0 l/m 0 min 0 min 111 W/m 20,9 km/h (4 Bft)
01.02.2015 12:26 3,3 C 2,8 C 97 % 989,2 hPa 0,0 l/m 0 min 0 min 111 W/m 14,6 km/h (3 Bft)
01.02.2015 12:28 3,3 C 2,8 C 97 % 989,2 hPa 0,0 l/m 0 min 0 min 114 W/m 14,6 km/h (3 Bft)
01.02.2015 12:30 3,3 C 2,8 C 97 % 989,2 hPa 0,0 l/m 0 min 0 min 113 W/m 20,9 km/h (4 Bft)
01.02.2015 12:32 3,3 C 2,2 C 97 % 989,3 hPa 0,0 l/m 0 min 0 min 105 W/m 16,7 km/h (3 Bft)
01.02.2015 12:34 3,3 C 2,8 C 97 % 989,3 hPa 0,0 l/m 0 min 0 min 91 W/m 12,6 km/h (3 Bft)
01.02.2015 12:36 3,3 C 2,2 C 97 % 989,3 hPa 0,0 l/m 0 min 0 min 90 W/m 18,8 km/h (3 Bft)
01.02.2015 12:38 3,3 C 2,2 C 97 % 989,4 hPa 0,0 l/m 0 min 0 min 94 W/m 16,7 km/h (3 Bft)
01.02.2015 12:40 3,3 C 2,2 C 97 % 989,3 hPa 0,0 l/m 0 min 0 min 106 W/m 18,8 km/h (3 Bft)
01.02.2015 12:42 3,3 C 2,2 C 97 % 989,3 hPa 0,0 l/m 0 min 0 min 112 W/m 18,8 km/h (3 Bft)
01.02.2015 12:44 3,3 C 2,2 C 96 % 989,3 hPa 0,0 l/m 0 min 0 min 114 W/m 23,0 km/h (4 Bft)
01.02.2015 12:46 3,3 C 2,8 C 96 % 989,3 hPa 0,0 l/m 0 min 0 min 114 W/m 16,7 km/h (3 Bft)
01.02.2015 12:48 3,3 C 2,8 C 96 % 989,3 hPa 0,0 l/m 0 min 0 min 137 W/m 14,6 km/h (3 Bft)
01.02.2015 12:50 3,3 C 2,8 C 96 % 989,3 hPa 0,0 l/m 0 min 0 min 150 W/m 12,6 km/h (3 Bft)
01.02.2015 12:52 3,4 C 2,8 C 96 % 989,2 hPa 0,0 l/m 0 min 0 min 124 W/m 10,5 km/h (2 Bft)
01.02.2015 12:54 3,4 C 2,8 C 96 % 989,2 hPa 0,0 l/m 0 min 0 min 80 W/m 10,5 km/h (2 Bft)
01.02.2015 12:56 3,4 C 2,8 C 96 % 989,2 hPa 0,0 l/m 0 min 0 min 66 W/m 12,6 km/h (3 Bft)
01.02.2015 12:58 3,4 C 2,8 C 96 % 989,3 hPa 0,0 l/m 0 min 0 min 66 W/m 16,7 km/h (3 Bft)
01.02.2015 13:00 3,4 C 2,2 C 96 % 989,3 hPa 0,0 l/m 0 min 0 min 74 W/m 14,6 km/h (3 Bft)
01.02.2015 13:02 3,4 C 2,8 C 96 % 989,4 hPa 0,0 l/m 0 min 0 min 84 W/m 10,5 km/h (2 Bft)
01.02.2015 13:04 3,4 C 2,8 C 96 % 989,3 hPa 0,0 l/m 0 min 0 min 93 W/m 10,5 km/h (2 Bft)
01.02.2015 13:06 3,5 C 2,8 C 96 % 989,3 hPa 0,0 l/m 0 min 0 min 104 W/m 12,6 km/h (3 Bft)
01.02.2015 13:08 3,5 C 2,8 C 96 % 989,4 hPa 0,0 l/m 0 min 0 min 114 W/m 16,7 km/h (3 Bft)
01.02.2015 13:10 3,5 C 2,8 C 96 % 989,4 hPa 0,0 l/m 0 min 0 min 117 W/m 14,6 km/h (3 Bft)
01.02.2015 13:12 3,5 C 2,8 C 96 % 989,4 hPa 0,0 l/m 0 min 0 min 106 W/m 16,7 km/h (3 Bft)
01.02.2015 13:14 3,5 C 2,8 C 96 % 989,4 hPa 0,0 l/m 0 min 0 min 119 W/m 16,7 km/h (3 Bft)
01.02.2015 13:16 3,5 C 2,8 C 95 % 989,4 hPa 0,0 l/m 0 min 0 min 139 W/m 20,9 km/h (4 Bft)
01.02.2015 13:18 3,5 C 2,8 C 95 % 989,4 hPa 0,0 l/m 0 min 0 min 144 W/m 18,8 km/h (3 Bft)
01.02.2015 13:20 3,6 C 2,8 C 95 % 989,4 hPa 0,0 l/m 0 min 0 min 131 W/m 20,9 km/h (4 Bft)
01.02.2015 13:22 3,6 C 2,8 C 95 % 989,4 hPa 0,0 l/m 0 min 0 min 119 W/m 20,9 km/h (4 Bft)
01.02.2015 13:24 3,6 C 2,8 C 95 % 989,4 hPa 0,0 l/m 0 min 0 min 111 W/m 16,7 km/h (3 Bft)
01.02.2015 13:26 3,6 C 2,8 C 95 % 989,5 hPa 0,0 l/m 0 min 0 min 112 W/m 14,6 km/h (3 Bft)
01.02.2015 13:28 3,7 C 2,8 C 95 % 989,5 hPa 0,0 l/m 0 min 0 min 101 W/m 16,7 km/h (3 Bft)
01.02.2015 13:30 3,7 C 2,8 C 95 % 989,5 hPa 0,0 l/m 0 min 0 min 74 W/m 20,9 km/h (4 Bft)
01.02.2015 13:32 3,7 C 2,8 C 94 % 989,5 hPa 0,0 l/m 0 min 0 min 70 W/m 10,5 km/h (2 Bft)
01.02.2015 13:34 3,7 C 2,8 C 94 % 989,5 hPa 0,0 l/m 0 min 0 min 73 W/m 14,6 km/h (3 Bft)
01.02.2015 13:36 3,7 C 2,2 C 94 % 989,5 hPa 0,0 l/m 0 min 0 min 65 W/m 16,7 km/h (3 Bft)
01.02.2015 13:38 3,7 C 2,2 C 94 % 989,5 hPa 0,0 l/m 0 min 0 min 51 W/m 12,6 km/h (3 Bft)
01.02.2015 13:40 3,7 C 2,2 C 94 % 989,5 hPa 0,0 l/m 0 min 0 min 46 W/m 16,7 km/h (3 Bft)
01.02.2015 13:42 3,7 C 2,2 C 94 % 989,5 hPa 0,0 l/m 0 min 0 min 45 W/m 12,6 km/h (3 Bft)
01.02.2015 13:44 3,7 C 2,2 C 94 % 989,5 hPa 0,0 l/m 0 min 0 min 49 W/m 6,3 km/h (2 Bft)
01.02.2015 13:46 3,6 C 2,2 C 93 % 989,5 hPa 0,0 l/m 0 min 0 min 50 W/m 10,5 km/h (2 Bft)
01.02.2015 13:48 3,7 C 2,2 C 93 % 989,5 hPa 0,0 l/m 0 min 0 min 48 W/m 12,6 km/h (3 Bft)
01.02.2015 13:50 3,6 C 2,2 C 93 % 989,6 hPa 0,0 l/m 0 min 0 min 51 W/m 6,3 km/h (2 Bft)
01.02.2015 13:52 3,7 C 2,2 C 93 % 989,6 hPa 0,0 l/m 0 min 0 min 54 W/m 14,6 km/h (3 Bft)
01.02.2015 13:54 3,7 C 2,2 C 93 % 989,6 hPa 0,0 l/m 0 min 0 min 59 W/m 10,5 km/h (2 Bft)
01.02.2015 13:56 3,6 C 2,2 C 93 % 989,6 hPa 0,0 l/m 0 min 0 min 56 W/m 16,7 km/h (3 Bft)
01.02.2015 13:58 3,6 C 2,2 C 93 % 989,6 hPa 0,0 l/m 0 min 0 min 53 W/m 14,6 km/h (3 Bft)
01.02.2015 14:00 3,6 C 2,2 C 93 % 989,6 hPa 0,0 l/m 0 min 0 min 51 W/m 14,6 km/h (3 Bft)
01.02.2015 14:02 3,6 C 2,2 C 92 % 989,6 hPa 0,0 l/m 0 min 0 min 51 W/m 18,8 km/h (3 Bft)
01.02.2015 14:04 3,6 C 2,2 C 92 % 989,6 hPa 0,0 l/m 0 min 0 min 54 W/m 16,7 km/h (3 Bft)
01.02.2015 14:06 3,6 C 2,2 C 93 % 989,6 hPa 0,0 l/m 0 min 0 min 66 W/m 6,3 km/h (2 Bft)
01.02.2015 14:08 3,6 C 2,2 C 92 % 989,6 hPa 0,0 l/m 0 min 0 min 78 W/m 10,5 km/h (2 Bft)
01.02.2015 14:10 3,6 C 2,2 C 92 % 989,7 hPa 0,0 l/m 0 min 0 min 82 W/m 12,6 km/h (3 Bft)
01.02.2015 14:12 3,6 C 2,2 C 92 % 989,7 hPa 0,0 l/m 0 min 0 min 90 W/m 8,4 km/h (2 Bft)
01.02.2015 14:14 3,6 C 2,2 C 92 % 989,6 hPa 0,0 l/m 0 min 0 min 88 W/m 12,6 km/h (3 Bft)
01.02.2015 14:16 3,6 C 2,2 C 92 % 989,7 hPa 0,0 l/m 0 min 0 min 68 W/m 6,3 km/h (2 Bft)
01.02.2015 14:18 3,6 C 2,2 C 92 % 989,7 hPa 0,0 l/m 0 min 0 min 54 W/m 6,3 km/h (2 Bft)
01.02.2015 14:20 3,6 C 2,2 C 92 % 989,7 hPa 0,0 l/m 0 min 0 min 44 W/m 10,5 km/h (2 Bft)
01.02.2015 14:22 3,6 C 2,2 C 92 % 989,7 hPa 0,0 l/m 0 min 0 min 41 W/m 16,7 km/h (3 Bft)
01.02.2015 14:24 3,6 C 2,2 C 92 % 989,7 hPa 0,0 l/m 0 min 0 min 39 W/m 12,6 km/h (3 Bft)
01.02.2015 14:26 3,6 C 2,2 C 92 % 989,8 hPa 0,0 l/m 0 min 0 min 51 W/m 12,6 km/h (3 Bft)
01.02.2015 14:28 3,6 C 2,2 C 92 % 989,7 hPa 0,0 l/m 0 min 0 min 47 W/m 12,6 km/h (3 Bft)
01.02.2015 14:30 3,6 C 2,2 C 92 % 989,8 hPa 0,0 l/m 0 min 0 min 49 W/m 16,7 km/h (3 Bft)
01.02.2015 14:32 3,6 C 2,2 C 92 % 989,9 hPa 0,0 l/m 0 min 0 min 49 W/m 16,7 km/h (3 Bft)
01.02.2015 14:34 3,6 C 2,2 C 92 % 989,9 hPa 0,0 l/m 0 min 0 min 40 W/m 16,7 km/h (3 Bft)
01.02.2015 14:36 3,6 C 2,2 C 92 % 990,0 hPa 0,0 l/m 0 min 0 min 39 W/m 12,6 km/h (3 Bft)
01.02.2015 14:38 3,6 C 2,2 C 92 % 990,0 hPa 0,0 l/m 0 min 0 min 39 W/m 8,4 km/h (2 Bft)
01.02.2015 14:40 3,6 C 2,2 C 92 % 990,0 hPa 0,0 l/m 0 min 0 min 35 W/m 14,6 km/h (3 Bft)
01.02.2015 14:42 3,5 C 2,2 C 92 % 990,1 hPa 0,0 l/m 0 min 0 min 32 W/m 16,7 km/h (3 Bft)
01.02.2015 14:44 3,5 C 2,2 C 92 % 990,0 hPa 0,0 l/m 0 min 0 min 31 W/m 14,6 km/h (3 Bft)
01.02.2015 14:46 3,5 C 2,2 C 92 % 990,1 hPa 0,0 l/m 0 min 0 min 28 W/m 12,6 km/h (3 Bft)
01.02.2015 14:48 3,5 C 1,7 C 92 % 990,1 hPa 0,0 l/m 0 min 0 min 26 W/m 14,6 km/h (3 Bft)
01.02.2015 14:50 3,4 C 1,7 C 92 % 990,1 hPa 0,0 l/m 0 min 0 min 25 W/m 12,6 km/h (3 Bft)
01.02.2015 14:52 3,4 C 1,7 C 92 % 990,2 hPa 0,0 l/m 0 min 0 min 21 W/m 14,6 km/h (3 Bft)
01.02.2015 14:54 3,4 C 1,7 C 92 % 990,1 hPa 0,0 l/m 0 min 0 min 19 W/m 8,4 km/h (2 Bft)
01.02.2015 14:56 3,4 C 1,7 C 92 % 990,2 hPa 0,0 l/m 0 min 0 min 18 W/m 8,4 km/h (2 Bft)
01.02.2015 14:58 3,4 C 1,7 C 92 % 990,2 hPa 0,0 l/m 0 min 0 min 18 W/m 8,4 km/h (2 Bft)
01.02.2015 15:00 3,4 C 1,7 C 92 % 990,2 hPa 0,0 l/m 0 min 0 min 18 W/m 6,3 km/h (2 Bft)
01.02.2015 15:02 3,4 C 1,7 C 92 % 990,3 hPa 0,0 l/m 0 min 0 min 17 W/m 10,5 km/h (2 Bft)
01.02.2015 15:04 3,4 C 1,7 C 92 % 990,2 hPa 0,0 l/m 0 min 0 min 15 W/m 8,4 km/h (2 Bft)
01.02.2015 15:06 3,4 C 1,7 C 92 % 990,3 hPa 0,0 l/m 0 min 0 min 13 W/m 8,4 km/h (2 Bft)
01.02.2015 15:08 3,4 C 1,7 C 92 % 990,3 hPa 0,0 l/m 0 min 0 min 12 W/m 10,5 km/h (2 Bft)
01.02.2015 15:10 3,4 C 1,7 C 92 % 990,3 hPa 0,0 l/m 0 min 0 min 11 W/m 10,5 km/h (2 Bft)
01.02.2015 15:12 3,3 C 1,7 C 92 % 990,4 hPa 0,0 l/m 0 min 0 min 10 W/m 10,5 km/h (2 Bft)
01.02.2015 15:14 3,3 C 1,7 C 92 % 990,4 hPa 0,0 l/m 0 min 0 min 9 W/m 10,5 km/h (2 Bft)
01.02.2015 15:16 3,3 C 1,7 C 92 % 990,4 hPa 0,0 l/m 0 min 0 min 9 W/m 8,4 km/h (2 Bft)
01.02.2015 15:18 3,3 C 1,7 C 92 % 990,4 hPa 0,0 l/m 0 min 0 min 9 W/m 8,4 km/h (2 Bft)
01.02.2015 15:20 3,3 C 1,7 C 92 % 990,5 hPa 0,0 l/m 0 min 0 min 9 W/m 12,6 km/h (3 Bft)
01.02.2015 15:22 3,3 C 1,7 C 92 % 990,5 hPa 0,0 l/m 0 min 2 min 9 W/m 12,6 km/h (3 Bft)
01.02.2015 15:24 3,3 C 1,7 C 92 % 990,5 hPa 0,0 l/m 0 min 0 min 9 W/m 10,5 km/h (2 Bft)
01.02.2015 15:26 3,3 C 1,7 C 92 % 990,5 hPa 0,0 l/m 0 min 0 min 9 W/m 10,5 km/h (2 Bft)
01.02.2015 15:28 3,3 C 1,7 C 92 % 990,5 hPa 0,0 l/m 0 min 0 min 10 W/m 8,4 km/h (2 Bft)
01.02.2015 15:30 3,3 C 1,7 C 92 % 990,5 hPa 0,0 l/m 0 min 0 min 11 W/m 10,5 km/h (2 Bft)
01.02.2015 15:32 3,2 C 1,7 C 92 % 990,6 hPa 0,0 l/m 0 min 0 min 11 W/m 10,5 km/h (2 Bft)
01.02.2015 15:34 3,2 C 1,7 C 92 % 990,7 hPa 0,0 l/m 0 min 0 min 11 W/m 12,6 km/h (3 Bft)
01.02.2015 15:36 3,2 C 1,7 C 92 % 990,7 hPa 0,0 l/m 0 min 0 min 12 W/m 8,4 km/h (2 Bft)
01.02.2015 15:38 3,2 C 1,7 C 92 % 990,6 hPa 0,0 l/m 0 min 0 min 13 W/m 12,6 km/h (3 Bft)
01.02.2015 15:40 3,2 C 1,7 C 92 % 990,8 hPa 0,0 l/m 0 min 0 min 15 W/m 8,4 km/h (2 Bft)
01.02.2015 15:42 3,2 C 1,7 C 92 % 990,7 hPa 0,0 l/m 0 min 0 min 18 W/m 10,5 km/h (2 Bft)
01.02.2015 15:44 3,2 C 1,7 C 92 % 990,7 hPa 0,0 l/m 0 min 0 min 19 W/m 8,4 km/h (2 Bft)
01.02.2015 15:46 3,2 C 1,7 C 92 % 990,8 hPa 0,0 l/m 0 min 0 min 22 W/m 10,5 km/h (2 Bft)
01.02.2015 15:48 3,1 C 1,7 C 92 % 990,8 hPa 0,0 l/m 0 min 0 min 25 W/m 10,5 km/h (2 Bft)
01.02.2015 15:50 3,1 C 1,7 C 92 % 990,8 hPa 0,0 l/m 0 min 2 min 25 W/m 8,4 km/h (2 Bft)
01.02.2015 15:52 3,1 C 1,7 C 92 % 990,8 hPa 0,0 l/m 0 min 2 min 24 W/m 10,5 km/h (2 Bft)
01.02.2015 15:54 3,1 C 1,7 C 92 % 990,9 hPa 0,0 l/m 0 min 0 min 23 W/m 8,4 km/h (2 Bft)
01.02.2015 15:56 3,1 C 1,7 C 92 % 990,9 hPa 0,0 l/m 0 min 0 min 24 W/m 6,3 km/h (2 Bft)
01.02.2015 15:58 3,1 C 1,7 C 92 % 990,9 hPa 0,0 l/m 0 min 0 min 26 W/m 8,4 km/h (2 Bft)
01.02.2015 16:00 3,1 C 1,7 C 92 % 990,9 hPa 0,0 l/m 0 min 0 min 30 W/m 12,6 km/h (3 Bft)
01.02.2015 16:02 3,1 C 1,7 C 92 % 990,9 hPa 0,0 l/m 0 min 0 min 34 W/m 10,5 km/h (2 Bft)
01.02.2015 16:04 3,0 C 1,7 C 92 % 990,9 hPa 0,0 l/m 0 min 0 min 39 W/m 8,4 km/h (2 Bft)
01.02.2015 16:06 3,0 C 1,7 C 92 % 991,0 hPa 0,0 l/m 0 min 0 min 42 W/m 6,3 km/h (2 Bft)
01.02.2015 16:08 3,0 C 1,7 C 92 % 991,0 hPa 0,0 l/m 0 min 0 min 45 W/m 10,5 km/h (2 Bft)
01.02.2015 16:10 3,0 C 1,7 C 92 % 991,0 hPa 0,0 l/m 0 min 0 min 46 W/m 8,4 km/h (2 Bft)
01.02.2015 16:12 3,0 C 1,7 C 92 % 991,0 hPa 0,0 l/m 0 min 0 min 47 W/m 6,3 km/h (2 Bft)
01.02.2015 16:14 2,9 C 1,7 C 93 % 991,1 hPa 0,0 l/m 0 min 0 min 47 W/m 8,4 km/h (2 Bft)
01.02.2015 16:16 2,9 C 1,7 C 93 % 991,1 hPa 0,0 l/m 0 min 0 min 45 W/m 6,3 km/h (2 Bft)
01.02.2015 16:18 2,9 C 1,7 C 93 % 991,2 hPa 0,0 l/m 0 min 0 min 44 W/m 8,4 km/h (2 Bft)
01.02.2015 16:20 2,9 C 1,7 C 93 % 991,2 hPa 0,0 l/m 0 min 0 min 44 W/m 8,4 km/h (2 Bft)
01.02.2015 16:22 2,9 C 1,7 C 92 % 991,2 hPa 0,0 l/m 0 min 0 min 41 W/m 6,3 km/h (2 Bft)
01.02.2015 16:24 2,9 C 1,7 C 93 % 991,3 hPa 0,0 l/m 0 min 0 min 36 W/m 8,4 km/h (2 Bft)
01.02.2015 16:26 2,9 C 1,7 C 93 % 991,3 hPa 0,0 l/m 0 min 0 min 30 W/m 8,4 km/h (2 Bft)
01.02.2015 16:28 2,9 C 1,1 C 93 % 991,3 hPa 0,0 l/m 0 min 0 min 26 W/m 6,3 km/h (2 Bft)
01.02.2015 16:30 2,9 C 1,1 C 93 % 991,3 hPa 0,0 l/m 0 min 0 min 24 W/m 6,3 km/h (2 Bft)
01.02.2015 16:32 2,9 C 1,1 C 93 % 991,3 hPa 0,0 l/m 0 min 0 min 19 W/m 4,2 km/h (1 Bft)
01.02.2015 16:34 2,8 C 1,1 C 93 % 991,3 hPa 0,0 l/m 0 min 0 min 17 W/m 4,2 km/h (1 Bft)
01.02.2015 16:36 2,8 C 1,1 C 93 % 991,3 hPa 0,0 l/m 0 min 0 min 16 W/m 4,2 km/h (1 Bft)
01.02.2015 16:38 2,8 C 1,1 C 93 % 991,4 hPa 0,0 l/m 0 min 0 min 16 W/m 4,2 km/h (1 Bft)
01.02.2015 16:40 2,8 C 1,1 C 93 % 991,4 hPa 0,0 l/m 0 min 0 min 16 W/m 4,2 km/h (1 Bft)
01.02.2015 16:42 2,8 C 1,1 C 93 % 991,5 hPa 0,0 l/m 0 min 0 min 16 W/m 4,2 km/h (1 Bft)
01.02.2015 16:44 2,8 C 1,1 C 93 % 991,5 hPa 0,0 l/m 0 min 0 min 16 W/m 4,2 km/h (1 Bft)
01.02.2015 16:46 2,8 C 1,1 C 93 % 991,5 hPa 0,0 l/m 0 min 0 min 16 W/m 4,2 km/h (1 Bft)
01.02.2015 16:48 2,7 C 1,1 C 93 % 991,5 hPa 0,0 l/m 0 min 0 min 18 W/m 4,2 km/h (1 Bft)
01.02.2015 16:50 2,7 C 1,1 C 93 % 991,6 hPa 0,0 l/m 0 min 0 min 16 W/m 4,2 km/h (1 Bft)
01.02.2015 16:52 2,7 C 1,1 C 93 % 991,6 hPa 0,0 l/m 0 min 0 min 13 W/m 4,2 km/h (1 Bft)
01.02.2015 16:54 2,7 C 1,1 C 93 % 991,7 hPa 0,0 l/m 0 min 0 min 12 W/m 6,3 km/h (2 Bft)
01.02.2015 16:56 2,7 C 1,1 C 93 % 991,7 hPa 0,0 l/m 0 min 0 min 11 W/m 4,2 km/h (1 Bft)
01.02.2015 16:58 2,7 C 1,1 C 93 % 991,8 hPa 0,0 l/m 0 min 0 min 9 W/m 4,2 km/h (1 Bft)
01.02.2015 17:00 2,7 C 1,1 C 93 % 991,8 hPa 0,0 l/m 0 min 0 min 9 W/m 6,3 km/h (2 Bft)
01.02.2015 17:02 2,7 C 1,1 C 93 % 991,8 hPa 0,0 l/m 0 min 0 min 9 W/m 4,2 km/h (1 Bft)
01.02.2015 17:04 2,7 C 1,1 C 93 % 991,8 hPa 0,0 l/m 0 min 0 min 8 W/m 4,2 km/h (1 Bft)
01.02.2015 17:06 2,7 C 1,1 C 93 % 991,8 hPa 0,0 l/m 0 min 0 min 7 W/m 4,2 km/h (1 Bft)
01.02.2015 17:08 2,7 C 1,1 C 93 % 991,8 hPa 0,0 l/m 0 min 0 min 9 W/m 4,2 km/h (1 Bft)
01.02.2015 17:10 2,7 C 1,1 C 93 % 991,8 hPa 0,0 l/m 0 min 0 min 9 W/m 6,3 km/h (2 Bft)
01.02.2015 17:12 2,6 C 1,1 C 93 % 991,8 hPa 0,0 l/m 0 min 0 min 7 W/m 4,2 km/h (1 Bft)
01.02.2015 17:14 2,6 C 1,1 C 93 % 991,9 hPa 0,0 l/m 0 min 0 min 6 W/m 4,2 km/h (1 Bft)
01.02.2015 17:16 2,6 C 1,1 C 93 % 991,9 hPa 0,0 l/m 0 min 0 min 5 W/m 4,2 km/h (1 Bft)
01.02.2015 17:18 2,6 C 1,1 C 93 % 991,9 hPa 0,0 l/m 0 min 0 min 5 W/m 2,1 km/h (1 Bft)
01.02.2015 17:20 2,6 C 1,1 C 93 % 991,9 hPa 0,0 l/m 0 min 0 min 5 W/m 4,2 km/h (1 Bft)
01.02.2015 17:22 2,6 C 1,1 C 93 % 992,0 hPa 0,0 l/m 0 min 0 min 5 W/m 2,1 km/h (1 Bft)
01.02.2015 17:24 2,6 C 1,1 C 93 % 992,0 hPa 0,0 l/m 0 min 0 min 2 W/m 2,1 km/h (1 Bft)
01.02.2015 17:26 2,6 C 1,1 C 93 % 992,0 hPa 0,0 l/m 0 min 0 min 0 W/m 2,1 km/h (1 Bft)
01.02.2015 17:28 2,6 C 1,1 C 93 % 992,0 hPa 0,0 l/m 0 min 0 min 0 W/m 2,1 km/h (1 Bft)
01.02.2015 17:30 2,6 C 1,1 C 93 % 992,0 hPa 0,0 l/m 0 min 0 min 0 W/m 2,1 km/h (1 Bft)
01.02.2015 17:32 2,6 C 1,1 C 93 % 992,1 hPa 0,0 l/m 0 min 0 min 0 W/m 2,1 km/h (1 Bft)
01.02.2015 17:34 2,5 C 1,1 C 93 % 992,1 hPa 0,0 l/m 0 min 0 min 0 W/m 2,1 km/h (1 Bft)
01.02.2015 17:36 2,5 C 0,6 C 93 % 992,1 hPa 0,0 l/m 0 min 0 min 0 W/m 4,2 km/h (1 Bft)
01.02.2015 17:38 2,5 C 0,6 C 93 % 992,1 hPa 0,0 l/m 0 min 0 min 0 W/m 4,2 km/h (1 Bft)
01.02.2015 17:40 2,5 C 0,6 C 93 % 992,2 hPa 0,0 l/m 0 min 0 min 0 W/m 6,3 km/h (2 Bft)
01.02.2015 17:42 2,5 C 0,6 C 93 % 992,2 hPa 0,0 l/m 0 min 0 min 0 W/m 4,2 km/h (1 Bft)
01.02.2015 17:44 2,5 C 0,6 C 93 % 992,2 hPa 0,0 l/m 0 min 0 min 0 W/m 4,2 km/h (1 Bft)
01.02.2015 17:46 2,4 C 0,0 C 93 % 992,3 hPa 0,0 l/m 0 min 0 min 0 W/m 4,2 km/h (1 Bft)
01.02.2015 17:48 2,4 C 0,0 C 93 % 992,3 hPa 0,0 l/m 0 min 0 min 0 W/m 6,3 km/h (2 Bft)
01.02.2015 17:50 2,4 C 0,6 C 93 % 992,3 hPa 0,0 l/m 0 min 0 min 0 W/m 4,2 km/h (1 Bft)
01.02.2015 17:52 2,4 C 0,6 C 93 % 992,4 hPa 0,0 l/m 0 min 0 min 0 W/m 4,2 km/h (1 Bft)
01.02.2015 17:54 2,4 C 0,6 C 93 % 992,5 hPa 0,0 l/m 0 min 0 min 0 W/m 6,3 km/h (2 Bft)
01.02.2015 17:56 2,3 C 0,6 C 93 % 992,5 hPa 0,0 l/m 0 min 0 min 0 W/m 4,2 km/h (1 Bft)
01.02.2015 17:58 2,3 C 0,6 C 93 % 992,5 hPa 0,0 l/m 0 min 0 min 0 W/m 4,2 km/h (1 Bft)
01.02.2015 18:00 2,3 C 0,6 C 93 % 992,5 hPa 0,0 l/m 0 min 0 min 0 W/m 6,3 km/h (2 Bft)
01.02.2015 18:02 2,3 C 0,6 C 93 % 992,6 hPa 0,0 l/m 0 min 0 min 0 W/m 4,2 km/h (1 Bft)
01.02.2015 18:05 2,3 C 0,6 C 93 % 992,7 hPa 0,0 l/m 0 min 0 min 0 W/m 4,2 km/h (1 Bft)
01.02.2015 18:08 2,3 C 0,6 C 94 % 992,7 hPa 0,0 l/m 0 min 0 min 0 W/m 2,1 km/h (1 Bft)
01.02.2015 18:10 2,2 C 0,6 C 94 % 992,8 hPa 0,0 l/m 0 min 0 min 0 W/m 4,2 km/h (1 Bft)
01.02.2015 18:12 2,2 C 0,6 C 94 % 992,9 hPa 0,0 l/m 0 min 0 min 0 W/m 4,2 km/h (1 Bft)
01.02.2015 18:14 2,2 C 0,6 C 94 % 992,9 hPa 0,0 l/m 0 min 0 min 0 W/m 2,1 km/h (1 Bft)
01.02.2015 18:16 2,2 C 0,6 C 94 % 992,9 hPa 0,0 l/m 0 min 0 min 0 W/m 4,2 km/h (1 Bft)
01.02.2015 18:18 2,2 C 0,6 C 94 % 992,9 hPa 0,0 l/m 0 min 0 min 0 W/m 6,3 km/h (2 Bft)
01.02.2015 18:20 2,2 C 0,6 C 94 % 992,9 hPa 0,0 l/m 0 min 0 min 0 W/m 4,2 km/h (1 Bft)
01.02.2015 18:22 2,2 C 0,6 C 94 % 992,9 hPa 0,0 l/m 0 min 0 min 0 W/m 4,2 km/h (1 Bft)
01.02.2015 18:24 2,2 C 0,6 C 94 % 993,0 hPa 0,0 l/m 0 min 0 min 0 W/m 6,3 km/h (2 Bft)
01.02.2015 18:26 2,2 C 0,6 C 93 % 993,1 hPa 0,0 l/m 0 min 0 min 0 W/m 4,2 km/h (1 Bft)
01.02.2015 18:28 2,2 C 1,1 C 94 % 993,1 hPa 0,0 l/m 0 min 0 min 0 W/m 6,3 km/h (2 Bft)
01.02.2015 18:30 2,2 C 1,1 C 94 % 993,2 hPa 0,0 l/m 0 min 0 min 0 W/m 4,2 km/h (1 Bft)
01.02.2015 18:32 2,2 C 1,1 C 94 % 993,3 hPa 0,0 l/m 0 min 0 min 0 W/m 4,2 km/h (1 Bft)
01.02.2015 18:34 2,2 C 1,1 C 94 % 993,3 hPa 0,0 l/m 0 min 0 min 0 W/m 6,3 km/h (2 Bft)
01.02.2015 18:36 2,2 C 1,1 C 94 % 993,3 hPa 0,0 l/m 0 min 0 min 0 W/m 8,4 km/h (2 Bft)
01.02.2015 18:38 2,2 C 1,1 C 94 % 993,3 hPa 0,0 l/m 0 min 0 min 0 W/m 6,3 km/h (2 Bft)
01.02.2015 18:40 2,2 C 1,1 C 94 % 993,3 hPa 0,0 l/m 0 min 0 min 0 W/m 6,3 km/h (2 Bft)
01.02.2015 18:42 2,2 C 1,1 C 94 % 993,4 hPa 0,0 l/m 0 min 0 min 0 W/m 10,5 km/h (2 Bft)
01.02.2015 18:44 2,2 C 1,1 C 94 % 993,4 hPa 0,0 l/m 0 min 0 min 0 W/m 6,3 km/h (2 Bft)
01.02.2015 18:46 2,2 C 1,1 C 94 % 993,4 hPa 0,0 l/m 0 min 0 min 0 W/m 6,3 km/h (2 Bft)
01.02.2015 18:48 2,2 C 1,1 C 94 % 993,4 hPa 0,0 l/m 0 min 0 min 0 W/m 8,4 km/h (2 Bft)
01.02.2015 18:50 2,2 C 1,1 C 94 % 993,5 hPa 0,0 l/m 0 min 0 min 0 W/m 8,4 km/h (2 Bft)
01.02.2015 18:52 2,2 C 1,1 C 94 % 993,5 hPa 0,0 l/m 0 min 0 min 0 W/m 2,1 km/h (1 Bft)
01.02.2015 18:54 2,2 C 1,1 C 94 % 993,5 hPa 0,0 l/m 0 min 0 min 0 W/m 6,3 km/h (2 Bft)
01.02.2015 18:56 2,2 C 1,1 C 94 % 993,6 hPa 0,0 l/m 0 min 0 min 0 W/m 6,3 km/h (2 Bft)
01.02.2015 18:58 2,2 C 1,1 C 94 % 993,6 hPa 0,0 l/m 0 min 0 min 0 W/m 4,2 km/h (1 Bft)
01.02.2015 19:00 2,2 C 1,1 C 94 % 993,6 hPa 0,0 l/m 0 min 0 min 0 W/m 8,4 km/h (2 Bft)
01.02.2015 19:02 2,2 C 1,1 C 94 % 993,6 hPa 0,0 l/m 0 min 0 min 0 W/m 8,4 km/h (2 Bft)
01.02.2015 19:04 2,2 C 1,1 C 94 % 993,6 hPa 0,0 l/m 0 min 0 min 0 W/m 6,3 km/h (2 Bft)
01.02.2015 19:06 2,2 C 1,1 C 94 % 993,6 hPa 0,0 l/m 0 min 0 min 0 W/m 8,4 km/h (2 Bft)
01.02.2015 19:08 2,2 C 1,1 C 94 % 993,7 hPa 0,0 l/m 0 min 0 min 0 W/m 8,4 km/h (2 Bft)
01.02.2015 19:10 2,2 C 1,1 C 94 % 993,7 hPa 0,0 l/m 0 min 0 min 0 W/m 6,3 km/h (2 Bft)
01.02.2015 19:12 2,2 C 1,1 C 94 % 993,7 hPa 0,0 l/m 0 min 0 min 0 W/m 6,3 km/h (2 Bft)
01.02.2015 19:14 2,2 C 1,1 C 94 % 993,8 hPa 0,0 l/m 0 min 0 min 0 W/m 6,3 km/h (2 Bft)
01.02.2015 19:16 2,2 C 1,1 C 94 % 993,8 hPa 0,0 l/m 0 min 0 min 0 W/m 6,3 km/h (2 Bft)
01.02.2015 19:18 2,2 C 1,1 C 94 % 993,8 hPa 0,0 l/m 0 min 0 min 0 W/m 8,4 km/h (2 Bft)
01.02.2015 19:20 2,2 C 1,1 C 94 % 993,8 hPa 0,0 l/m 0 min 0 min 0 W/m 6,3 km/h (2 Bft)
01.02.2015 19:22 2,2 C 1,1 C 94 % 993,9 hPa 0,0 l/m 0 min 0 min 0 W/m 8,4 km/h (2 Bft)
01.02.2015 19:24 2,2 C 1,1 C 94 % 993,9 hPa 0,0 l/m 0 min 0 min 0 W/m 8,4 km/h (2 Bft)
01.02.2015 19:26 2,2 C 1,1 C 94 % 994,0 hPa 0,0 l/m 0 min 0 min 0 W/m 6,3 km/h (2 Bft)
01.02.2015 19:28 2,2 C 1,1 C 94 % 994,0 hPa 0,0 l/m 0 min 0 min 0 W/m 8,4 km/h (2 Bft)
01.02.2015 19:30 2,3 C 1,1 C 95 % 994,1 hPa 0,0 l/m 0 min 0 min 0 W/m 4,2 km/h (1 Bft)
01.02.2015 19:32 2,3 C 1,1 C 95 % 994,1 hPa 0,0 l/m 0 min 0 min 0 W/m 14,6 km/h (3 Bft)
01.02.2015 19:34 2,3 C 1,1 C 95 % 994,1 hPa 0,0 l/m 0 min 0 min 0 W/m 12,6 km/h (3 Bft)
01.02.2015 19:36 2,3 C 1,1 C 95 % 994,2 hPa 0,0 l/m 0 min 0 min 0 W/m 8,4 km/h (2 Bft)
01.02.2015 19:38 2,3 C 1,1 C 95 % 994,2 hPa 0,0 l/m 0 min 0 min 0 W/m 10,5 km/h (2 Bft)
01.02.2015 19:40 2,3 C 0,6 C 95 % 994,2 hPa 0,0 l/m 0 min 0 min 0 W/m 10,5 km/h (2 Bft)
01.02.2015 19:42 2,4 C 0,6 C 95 % 994,2 hPa 0,0 l/m 0 min 0 min 0 W/m 8,4 km/h (2 Bft)
01.02.2015 19:44 2,3 C 0,6 C 95 % 994,3 hPa 0,0 l/m 0 min 0 min 0 W/m 10,5 km/h (2 Bft)
01.02.2015 19:46 2,3 C 0,6 C 95 % 994,3 hPa 0,0 l/m 0 min 0 min 0 W/m 14,6 km/h (3 Bft)
01.02.2015 19:48 2,3 C 0,6 C 95 % 994,4 hPa 0,0 l/m 0 min 0 min 0 W/m 8,4 km/h (2 Bft)
01.02.2015 19:50 2,3 C 0,6 C 95 % 994,4 hPa 0,0 l/m 0 min 0 min 0 W/m 8,4 km/h (2 Bft)
01.02.2015 19:52 2,3 C 0,6 C 95 % 994,5 hPa 0,0 l/m 0 min 0 min 0 W/m 10,5 km/h (2 Bft)
01.02.2015 19:54 2,3 C 0,6 C 95 % 994,5 hPa 0,0 l/m 0 min 0 min 0 W/m 12,6 km/h (3 Bft)
01.02.2015 19:56 2,3 C 0,6 C 95 % 994,5 hPa 0,0 l/m 0 min 0 min 0 W/m 8,4 km/h (2 Bft)
01.02.2015 19:58 2,3 C 0,0 C 95 % 994,5 hPa 0,0 l/m 0 min 0 min 0 W/m 8,4 km/h (2 Bft)
01.02.2015 20:00 2,3 C 0,0 C 95 % 994,5 hPa 0,0 l/m 0 min 0 min 0 W/m 12,6 km/h (3 Bft)
01.02.2015 20:02 2,3 C 0,0 C 95 % 994,6 hPa 0,0 l/m 0 min 0 min 0 W/m 6,3 km/h (2 Bft)
01.02.2015 20:04 2,2 C 0,0 C 95 % 994,6 hPa 0,0 l/m 0 min 0 min 0 W/m 10,5 km/h (2 Bft)
01.02.2015 20:06 2,2 C 0,0 C 95 % 994,6 hPa 0,0 l/m 0 min 0 min 0 W/m 8,4 km/h (2 Bft)
01.02.2015 20:08 2,2 C 0,0 C 95 % 994,7 hPa 0,0 l/m 0 min 0 min 0 W/m 14,6 km/h (3 Bft)
01.02.2015 20:10 2,2 C 0,0 C 95 % 994,7 hPa 0,0 l/m 0 min 0 min 0 W/m 10,5 km/h (2 Bft)
01.02.2015 20:12 2,2 C 0,0 C 95 % 994,7 hPa 0,0 l/m 0 min 0 min 0 W/m 8,4 km/h (2 Bft)
01.02.2015 20:14 2,1 C 0,0 C 95 % 994,7 hPa 0,0 l/m 0 min 0 min 0 W/m 10,5 km/h (2 Bft)
01.02.2015 20:16 2,1 C 0,0 C 95 % 994,8 hPa 0,0 l/m 0 min 0 min 0 W/m 10,5 km/h (2 Bft)
01.02.2015 20:18 2,1 C 0,0 C 95 % 994,8 hPa 0,0 l/m 0 min 0 min 0 W/m 8,4 km/h (2 Bft)
01.02.2015 20:20 2,1 C 0,0 C 95 % 994,8 hPa 0,0 l/m 0 min 0 min 0 W/m 10,5 km/h (2 Bft)
01.02.2015 20:22 2,1 C 0,0 C 95 % 994,9 hPa 0,0 l/m 0 min 0 min 0 W/m 8,4 km/h (2 Bft)
01.02.2015 20:24 2,1 C 0,0 C 95 % 994,9 hPa 0,0 l/m 0 min 0 min 0 W/m 8,4 km/h (2 Bft)
01.02.2015 20:26 2,0 C -0,6 C 95 % 995,0 hPa 0,0 l/m 0 min 0 min 0 W/m 6,3 km/h (2 Bft)
01.02.2015 20:28 2,0 C -0,6 C 95 % 994,9 hPa 0,0 l/m 0 min 0 min 0 W/m 6,3 km/h (2 Bft)
01.02.2015 20:30 2,0 C -0,6 C 95 % 995,0 hPa 0,0 l/m 0 min 0 min 0 W/m 8,4 km/h (2 Bft)
01.02.2015 20:32 1,9 C -0,6 C 95 % 995,0 hPa 0,0 l/m 0 min 0 min 0 W/m 6,3 km/h (2 Bft)
01.02.2015 20:34 1,9 C -0,6 C 95 % 995,0 hPa 0,0 l/m 0 min 0 min 0 W/m 6,3 km/h (2 Bft)
01.02.2015 20:36 1,9 C -0,6 C 95 % 995,0 hPa 0,0 l/m 0 min 0 min 0 W/m 8,4 km/h (2 Bft)
01.02.2015 20:38 1,9 C -0,6 C 95 % 995,0 hPa 0,0 l/m 0 min 0 min 0 W/m 6,3 km/h (2 Bft)
01.02.2015 20:40 1,8 C -0,6 C 95 % 995,1 hPa 0,0 l/m 0 min 0 min 0 W/m 6,3 km/h (2 Bft)
01.02.2015 20:42 1,8 C -0,6 C 95 % 995,1 hPa 0,0 l/m 0 min 0 min 0 W/m 8,4 km/h (2 Bft)
01.02.2015 20:44 1,8 C -0,6 C 95 % 995,1 hPa 0,0 l/m 0 min 0 min 0 W/m 6,3 km/h (2 Bft)
01.02.2015 20:46 1,8 C -0,6 C 95 % 995,1 hPa 0,0 l/m 0 min 0 min 0 W/m 8,4 km/h (2 Bft)
01.02.2015 20:48 1,7 C 0,0 C 95 % 995,2 hPa 0,0 l/m 0 min 0 min 0 W/m 8,4 km/h (2 Bft)
01.02.2015 20:50 1,7 C 0,0 C 95 % 995,2 hPa 0,0 l/m 0 min 0 min 0 W/m 10,5 km/h (2 Bft)
01.02.2015 20:52 1,7 C 0,0 C 95 % 995,2 hPa 0,0 l/m 0 min 0 min 0 W/m 6,3 km/h (2 Bft)
01.02.2015 20:54 1,7 C 0,0 C 95 % 995,2 hPa 0,0 l/m 0 min 0 min 0 W/m 8,4 km/h (2 Bft)
01.02.2015 20:56 1,7 C 0,0 C 95 % 995,2 hPa 0,0 l/m 0 min 0 min 0 W/m 10,5 km/h (2 Bft)
01.02.2015 20:58 1,6 C 0,0 C 95 % 995,3 hPa 0,0 l/m 0 min 0 min 0 W/m 12,6 km/h (3 Bft)
01.02.2015 21:00 1,6 C 0,0 C 95 % 995,2 hPa 0,0 l/m 0 min 0 min 0 W/m 10,5 km/h (2 Bft)
01.02.2015 21:02 1,6 C 0,0 C 95 % 995,2 hPa 0,0 l/m 0 min 0 min 0 W/m 10,5 km/h (2 Bft)
01.02.2015 21:04 1,6 C 0,0 C 95 % 995,3 hPa 0,0 l/m 0 min 0 min 0 W/m 10,5 km/h (2 Bft)
01.02.2015 21:06 1,6 C 0,6 C 95 % 995,3 hPa 0,0 l/m 0 min 0 min 0 W/m 8,4 km/h (2 Bft)
01.02.2015 21:08 1,6 C 0,6 C 95 % 995,3 hPa 0,0 l/m 0 min 0 min 0 W/m 8,4 km/h (2 Bft)
01.02.2015 21:10 1,6 C 0,6 C 95 % 995,3 hPa 0,0 l/m 0 min 0 min 0 W/m 10,5 km/h (2 Bft)
01.02.2015 21:12 1,7 C 0,6 C 95 % 995,4 hPa 0,0 l/m 0 min 0 min 0 W/m 16,7 km/h (3 Bft)
01.02.2015 21:14 1,7 C 0,6 C 95 % 995,4 hPa 0,0 l/m 0 min 2 min 0 W/m 12,6 km/h (3 Bft)
01.02.2015 21:16 1,7 C 0,6 C 95 % 995,4 hPa 0,0 l/m 0 min 2 min 0 W/m 10,5 km/h (2 Bft)
01.02.2015 21:18 1,7 C 0,6 C 95 % 995,4 hPa 0,0 l/m 0 min 2 min 0 W/m 10,5 km/h (2 Bft)
01.02.2015 21:20 1,7 C 0,6 C 95 % 995,4 hPa 0,2 l/m 0 min 2 min 0 W/m 8,4 km/h (2 Bft)
01.02.2015 21:22 1,7 C 0,6 C 95 % 995,4 hPa 0,0 l/m 0 min 2 min 0 W/m 6,3 km/h (2 Bft)
01.02.2015 21:24 1,7 C 0,6 C 95 % 995,4 hPa 0,0 l/m 0 min 2 min 0 W/m 8,4 km/h (2 Bft)
01.02.2015 21:26 1,8 C 0,6 C 95 % 995,4 hPa 0,0 l/m 0 min 2 min 0 W/m 10,5 km/h (2 Bft)
01.02.2015 21:28 1,8 C 0,6 C 95 % 995,4 hPa 0,0 l/m 0 min 0 min 0 W/m 8,4 km/h (2 Bft)
01.02.2015 21:30 1,8 C 0,6 C 96 % 995,5 hPa 0,0 l/m 0 min 0 min 0 W/m 8,4 km/h (2 Bft)
01.02.2015 21:32 1,8 C 0,6 C 96 % 995,5 hPa 0,0 l/m 0 min 0 min 0 W/m 8,4 km/h (2 Bft)
01.02.2015 21:34 1,8 C 0,0 C 96 % 995,6 hPa 0,0 l/m 0 min 0 min 0 W/m 8,4 km/h (2 Bft)
01.02.2015 21:36 1,8 C 0,0 C 96 % 995,6 hPa 0,0 l/m 0 min 0 min 0 W/m 6,3 km/h (2 Bft)
01.02.2015 21:38 1,8 C 0,0 C 96 % 995,6 hPa 0,0 l/m 0 min 0 min 0 W/m 12,6 km/h (3 Bft)
01.02.2015 21:40 1,8 C 0,0 C 95 % 995,6 hPa 0,0 l/m 0 min 0 min 0 W/m 8,4 km/h (2 Bft)
01.02.2015 21:42 1,8 C 0,0 C 95 % 995,6 hPa 0,0 l/m 0 min 0 min 0 W/m 8,4 km/h (2 Bft)
01.02.2015 21:44 1,7 C 0,0 C 95 % 995,6 hPa 0,0 l/m 0 min 0 min 0 W/m 8,4 km/h (2 Bft)
01.02.2015 21:46 1,7 C 0,0 C 95 % 995,7 hPa 0,0 l/m 0 min 0 min 0 W/m 12,6 km/h (3 Bft)
01.02.2015 21:48 1,7 C 0,6 C 95 % 995,7 hPa 0,0 l/m 0 min 0 min 0 W/m 8,4 km/h (2 Bft)
01.02.2015 21:50 1,7 C 0,6 C 95 % 995,6 hPa 0,0 l/m 0 min 0 min 0 W/m 8,4 km/h (2 Bft)
01.02.2015 21:52 1,7 C 0,6 C 95 % 995,7 hPa 0,0 l/m 0 min 0 min 0 W/m 8,4 km/h (2 Bft)
01.02.2015 21:54 1,7 C 0,6 C 96 % 995,7 hPa 0,0 l/m 0 min 0 min 0 W/m 10,5 km/h (2 Bft)
01.02.2015 21:56 1,7 C 0,6 C 96 % 995,7 hPa 0,0 l/m 0 min 0 min 0 W/m 10,5 km/h (2 Bft)
01.02.2015 21:58 1,7 C 0,6 C 96 % 995,7 hPa 0,0 l/m 0 min 0 min 0 W/m 6,3 km/h (2 Bft)
01.02.2015 22:00 1,7 C 0,6 C 96 % 995,7 hPa 0,0 l/m 0 min 2 min 0 W/m 10,5 km/h (2 Bft)
01.02.2015 22:02 1,7 C 0,6 C 96 % 995,7 hPa 0,0 l/m 0 min 2 min 0 W/m 10,5 km/h (2 Bft)
01.02.2015 22:04 1,7 C 0,6 C 96 % 995,7 hPa 0,0 l/m 0 min 2 min 0 W/m 6,3 km/h (2 Bft)
01.02.2015 22:06 1,7 C 0,0 C 96 % 995,7 hPa 0,0 l/m 0 min 2 min 0 W/m 8,4 km/h (2 Bft)
01.02.2015 22:08 1,7 C 0,0 C 96 % 995,7 hPa 0,0 l/m 0 min 0 min 0 W/m 10,5 km/h (2 Bft)
01.02.2015 22:10 1,7 C 0,0 C 96 % 995,7 hPa 0,0 l/m 0 min 0 min 0 W/m 12,6 km/h (3 Bft)
01.02.2015 22:12 1,7 C 0,0 C 96 % 995,8 hPa 0,0 l/m 0 min 0 min 0 W/m 8,4 km/h (2 Bft)
01.02.2015 22:14 1,7 C 0,6 C 96 % 995,8 hPa 0,0 l/m 0 min 0 min 0 W/m 8,4 km/h (2 Bft)
01.02.2015 22:16 1,7 C 0,6 C 96 % 995,8 hPa 0,0 l/m 0 min 0 min 0 W/m 16,7 km/h (3 Bft)
01.02.2015 22:18 1,7 C 0,6 C 96 % 995,8 hPa 0,0 l/m 0 min 0 min 0 W/m 12,6 km/h (3 Bft)
01.02.2015 22:20 1,7 C 0,6 C 96 % 995,8 hPa 0,0 l/m 0 min 0 min 0 W/m 12,6 km/h (3 Bft)
01.02.2015 22:22 1,7 C 0,6 C 96 % 995,8 hPa 0,0 l/m 0 min 0 min 0 W/m 12,6 km/h (3 Bft)
01.02.2015 22:24 1,7 C 0,6 C 96 % 995,8 hPa 0,0 l/m 0 min 0 min 0 W/m 12,6 km/h (3 Bft)
01.02.2015 22:26 1,7 C 0,6 C 96 % 995,8 hPa 0,0 l/m 0 min 0 min 0 W/m 12,6 km/h (3 Bft)
01.02.2015 22:28 1,7 C 0,6 C 96 % 995,8 hPa 0,0 l/m 0 min 0 min 0 W/m 16,7 km/h (3 Bft)
01.02.2015 22:30 1,8 C 0,6 C 96 % 995,9 hPa 0,0 l/m 0 min 0 min 0 W/m 14,6 km/h (3 Bft)
01.02.2015 22:32 1,8 C 0,6 C 96 % 995,9 hPa 0,0 l/m 0 min 0 min 0 W/m 16,7 km/h (3 Bft)
01.02.2015 22:34 1,8 C 0,6 C 96 % 995,9 hPa 0,0 l/m 0 min 0 min 0 W/m 12,6 km/h (3 Bft)
01.02.2015 22:36 1,8 C 0,6 C 96 % 995,9 hPa 0,0 l/m 0 min 0 min 0 W/m 16,7 km/h (3 Bft)
01.02.2015 22:38 1,8 C 0,6 C 96 % 995,9 hPa 0,0 l/m 0 min 0 min 0 W/m 12,6 km/h (3 Bft)
01.02.2015 22:40 1,8 C 0,0 C 96 % 995,9 hPa 0,0 l/m 0 min 0 min 0 W/m 14,6 km/h (3 Bft)
01.02.2015 22:42 1,8 C 0,0 C 96 % 995,9 hPa 0,0 l/m 0 min 0 min 0 W/m 12,6 km/h (3 Bft)
01.02.2015 22:44 1,8 C 0,0 C 96 % 995,9 hPa 0,0 l/m 0 min 0 min 0 W/m 10,5 km/h (2 Bft)
01.02.2015 22:46 1,8 C 0,0 C 96 % 995,9 hPa 0,0 l/m 0 min 0 min 0 W/m 12,6 km/h (3 Bft)
01.02.2015 22:48 1,8 C 0,0 C 96 % 995,9 hPa 0,0 l/m 0 min 0 min 0 W/m 12,6 km/h (3 Bft)
01.02.2015 22:50 1,7 C 0,0 C 96 % 995,9 hPa 0,0 l/m 0 min 0 min 0 W/m 14,6 km/h (3 Bft)
01.02.2015 22:52 1,7 C 0,0 C 96 % 995,9 hPa 0,0 l/m 0 min 0 min 0 W/m 10,5 km/h (2 Bft)
01.02.2015 22:54 1,7 C 0,0 C 96 % 995,9 hPa 0,0 l/m 0 min 0 min 0 W/m 10,5 km/h (2 Bft)
01.02.2015 22:56 1,7 C 0,0 C 96 % 995,8 hPa 0,0 l/m 0 min 0 min 0 W/m 10,5 km/h (2 Bft)
01.02.2015 22:58 1,7 C 0,0 C 96 % 995,9 hPa 0,0 l/m 0 min 0 min 0 W/m 8,4 km/h (2 Bft)
01.02.2015 23:00 1,6 C -0,6 C 96 % 995,9 hPa 0,0 l/m 0 min 0 min 0 W/m 8,4 km/h (2 Bft)
01.02.2015 23:02 1,6 C -0,6 C 96 % 995,9 hPa 0,0 l/m 0 min 0 min 0 W/m 16,7 km/h (3 Bft)
01.02.2015 23:04 1,6 C -0,6 C 96 % 995,9 hPa 0,0 l/m 0 min 0 min 0 W/m 12,6 km/h (3 Bft)
01.02.2015 23:06 1,6 C -0,6 C 96 % 995,9 hPa 0,0 l/m 0 min 0 min 0 W/m 16,7 km/h (3 Bft)
01.02.2015 23:08 1,5 C -0,6 C 96 % 996,0 hPa 0,0 l/m 0 min 0 min 0 W/m 12,6 km/h (3 Bft)
01.02.2015 23:10 1,5 C -0,6 C 96 % 995,9 hPa 0,0 l/m 0 min 0 min 0 W/m 10,5 km/h (2 Bft)
01.02.2015 23:12 1,4 C -0,6 C 96 % 996,0 hPa 0,0 l/m 0 min 0 min 0 W/m 16,7 km/h (3 Bft)
01.02.2015 23:14 1,4 C -0,6 C 96 % 996,0 hPa 0,0 l/m 0 min 0 min 0 W/m 12,6 km/h (3 Bft)
01.02.2015 23:16 1,4 C -0,6 C 96 % 996,0 hPa 0,0 l/m 0 min 0 min 0 W/m 10,5 km/h (2 Bft)
01.02.2015 23:18 1,4 C -0,6 C 96 % 996,1 hPa 0,0 l/m 0 min 0 min 0 W/m 14,6 km/h (3 Bft)
01.02.2015 23:20 1,3 C -0,6 C 96 % 996,1 hPa 0,0 l/m 0 min 0 min 0 W/m 8,4 km/h (2 Bft)
01.02.2015 23:22 1,3 C -0,6 C 96 % 996,1 hPa 0,0 l/m 0 min 0 min 0 W/m 8,4 km/h (2 Bft)
01.02.2015 23:24 1,3 C -0,6 C 96 % 996,1 hPa 0,0 l/m 0 min 0 min 0 W/m 10,5 km/h (2 Bft)
01.02.2015 23:26 1,3 C -0,6 C 96 % 996,2 hPa 0,0 l/m 0 min 0 min 0 W/m 10,5 km/h (2 Bft)
01.02.2015 23:28 1,2 C -0,6 C 96 % 996,1 hPa 0,0 l/m 0 min 0 min 0 W/m 10,5 km/h (2 Bft)
01.02.2015 23:30 1,2 C -0,6 C 96 % 996,1 hPa 0,0 l/m 0 min 0 min 0 W/m 8,4 km/h (2 Bft)
01.02.2015 23:32 1,2 C -0,6 C 96 % 996,3 hPa 0,0 l/m 0 min 0 min 0 W/m 8,4 km/h (2 Bft)
01.02.2015 23:34 1,2 C -0,6 C 96 % 996,3 hPa 0,0 l/m 0 min 0 min 0 W/m 8,4 km/h (2 Bft)
01.02.2015 23:36 1,2 C -0,6 C 96 % 996,3 hPa 0,0 l/m 0 min 0 min 0 W/m 8,4 km/h (2 Bft)
01.02.2015 23:38 1,1 C -0,6 C 96 % 996,3 hPa 0,0 l/m 0 min 0 min 0 W/m 8,4 km/h (2 Bft)
01.02.2015 23:40 1,1 C -0,6 C 96 % 996,3 hPa 0,0 l/m 0 min 0 min 0 W/m 8,4 km/h (2 Bft)
01.02.2015 23:42 1,1 C -0,6 C 96 % 996,3 hPa 0,0 l/m 0 min 0 min 0 W/m 12,6 km/h (3 Bft)
01.02.2015 23:44 1,1 C -0,6 C 96 % 996,3 hPa 0,0 l/m 0 min 0 min 0 W/m 10,5 km/h (2 Bft)
01.02.2015 23:46 1,0 C -0,6 C 96 % 996,3 hPa 0,0 l/m 0 min 0 min 0 W/m 10,5 km/h (2 Bft)
01.02.2015 23:48 1,0 C -0,6 C 96 % 996,4 hPa 0,0 l/m 0 min 0 min 0 W/m 10,5 km/h (2 Bft)
01.02.2015 23:50 1,0 C -0,6 C 96 % 996,4 hPa 0,0 l/m 0 min 0 min 0 W/m 12,6 km/h (3 Bft)
01.02.2015 23:52 0,9 C -0,6 C 96 % 996,4 hPa 0,0 l/m 0 min 0 min 0 W/m 10,5 km/h (2 Bft)
01.02.2015 23:54 0,9 C -0,6 C 96 % 996,4 hPa 0,0 l/m 0 min 0 min 0 W/m 12,6 km/h (3 Bft)
01.02.2015 23:56 0,9 C -0,6 C 96 % 996,4 hPa 0,0 l/m 0 min 0 min 0 W/m 10,5 km/h (2 Bft)
01.02.2015 23:58 0,9 C -0,6 C 96 % 996,4 hPa 0,0 l/m 0 min 0 min 0 W/m 12,6 km/h (3 Bft)
_ Min-Zeit 00:00 00:10 14:02 00:08 - - - - 17:18
Minimum _ -1,3 C -2,8 C 92 % 985,7 hPa - - - - 2,1 km/h (1 Bft)
_ Max-Zeit 13:28 12:10 05:50 23:48 07:28 11:40 07:26 12:00 06:56
Maximum _ 3,7 C 2,8 C 97 % 996,4 hPa 0,2 l/m 2 min 2 min 392 W/m 27,2 km/h
W-SW (4 Bft)
Durchschnitt _ 1,4 C 0,2 C 95 % 989,8 hPa #0,6 l/m #22 min. #1:38 h 64 W/m 10,6 km/h (2 Bft)
© 2015 W. Hausmann